<?xml version="1.0" encoding="UTF-8" standalone="no" ?>
<gpx xmlns="http://www.topografix.com/GPX/1/1" xmlns:xsi="http://www.w3.org/2001/XMLSchema-instance" xsi:schemaLocation="http://www.topografix.com/GPX/1/1 http://www.topografix.com/GPX/1/1/gpx.xsd" version="1.1" creator="VisuGPX - https://www.visugpx.com">
  <metadata>
    <name>Vallauris Garbejaire</name>
    <desc><![CDATA[Trace AlpineQuest 26/10/2014 15:37:11]]></desc>
  </metadata>
  <trk>
    <name><![CDATA[vallau]]></name>
    <trkseg>
      <trkpt lat="43.57461" lon="7.0558">
        <ele>189.5</ele>
        <time>2014-10-26T14:37:11Z</time>
      </trkpt>
      <trkpt lat="43.5748" lon="7.0558">
        <ele>166.4</ele>
        <time>2014-10-26T14:37:18Z</time>
      </trkpt>
      <trkpt lat="43.57489" lon="7.05591">
        <ele>151.6</ele>
        <time>2014-10-26T14:37:24Z</time>
      </trkpt>
      <trkpt lat="43.57486" lon="7.05583">
        <ele>156.2</ele>
        <time>2014-10-26T14:37:29Z</time>
      </trkpt>
      <trkpt lat="43.57484" lon="7.05559">
        <ele>156.8</ele>
        <time>2014-10-26T14:37:34Z</time>
      </trkpt>
      <trkpt lat="43.57479" lon="7.05548">
        <ele>154.5</ele>
        <time>2014-10-26T14:37:36Z</time>
      </trkpt>
      <trkpt lat="43.57475" lon="7.05521">
        <ele>153.4</ele>
        <time>2014-10-26T14:37:42Z</time>
      </trkpt>
      <trkpt lat="43.57469" lon="7.05499">
        <ele>153.9</ele>
        <time>2014-10-26T14:37:47Z</time>
      </trkpt>
      <trkpt lat="43.57465" lon="7.05474">
        <ele>154.9</ele>
        <time>2014-10-26T14:37:52Z</time>
      </trkpt>
      <trkpt lat="43.57465" lon="7.05465">
        <ele>154.4</ele>
        <time>2014-10-26T14:38:04Z</time>
      </trkpt>
      <trkpt lat="43.57469" lon="7.05446">
        <ele>154.8</ele>
        <time>2014-10-26T14:38:09Z</time>
      </trkpt>
      <trkpt lat="43.5747" lon="7.05422">
        <ele>154.4</ele>
        <time>2014-10-26T14:38:14Z</time>
      </trkpt>
      <trkpt lat="43.57461" lon="7.05386">
        <ele>154</ele>
        <time>2014-10-26T14:38:20Z</time>
      </trkpt>
      <trkpt lat="43.57448" lon="7.05355">
        <ele>154.3</ele>
        <time>2014-10-26T14:38:25Z</time>
      </trkpt>
      <trkpt lat="43.57432" lon="7.05333">
        <ele>154.5</ele>
        <time>2014-10-26T14:38:30Z</time>
      </trkpt>
      <trkpt lat="43.57423" lon="7.05288">
        <ele>155.6</ele>
        <time>2014-10-26T14:38:36Z</time>
      </trkpt>
      <trkpt lat="43.57422" lon="7.05238">
        <ele>156.2</ele>
        <time>2014-10-26T14:38:42Z</time>
      </trkpt>
      <trkpt lat="43.57426" lon="7.05201">
        <ele>157.1</ele>
        <time>2014-10-26T14:38:47Z</time>
      </trkpt>
      <trkpt lat="43.57427" lon="7.05164">
        <ele>156.6</ele>
        <time>2014-10-26T14:38:52Z</time>
      </trkpt>
      <trkpt lat="43.57422" lon="7.05132">
        <ele>157.1</ele>
        <time>2014-10-26T14:38:57Z</time>
      </trkpt>
      <trkpt lat="43.57417" lon="7.05101">
        <ele>157.9</ele>
        <time>2014-10-26T14:39:02Z</time>
      </trkpt>
      <trkpt lat="43.57414" lon="7.0507">
        <ele>158.1</ele>
        <time>2014-10-26T14:39:07Z</time>
      </trkpt>
      <trkpt lat="43.57411" lon="7.05036">
        <ele>159</ele>
        <time>2014-10-26T14:39:12Z</time>
      </trkpt>
      <trkpt lat="43.57411" lon="7.04996">
        <ele>159.9</ele>
        <time>2014-10-26T14:39:18Z</time>
      </trkpt>
      <trkpt lat="43.57411" lon="7.04955">
        <ele>161.1</ele>
        <time>2014-10-26T14:39:24Z</time>
      </trkpt>
      <trkpt lat="43.57409" lon="7.04918">
        <ele>162.4</ele>
        <time>2014-10-26T14:39:30Z</time>
      </trkpt>
      <trkpt lat="43.57424" lon="7.04901">
        <ele>161.6</ele>
        <time>2014-10-26T14:39:33Z</time>
      </trkpt>
      <trkpt lat="43.57453" lon="7.04895">
        <ele>160.6</ele>
        <time>2014-10-26T14:39:38Z</time>
      </trkpt>
      <trkpt lat="43.57479" lon="7.0489">
        <ele>160.9</ele>
        <time>2014-10-26T14:39:43Z</time>
      </trkpt>
      <trkpt lat="43.57503" lon="7.04892">
        <ele>161.5</ele>
        <time>2014-10-26T14:39:48Z</time>
      </trkpt>
      <trkpt lat="43.57521" lon="7.0487">
        <ele>162.4</ele>
        <time>2014-10-26T14:39:54Z</time>
      </trkpt>
      <trkpt lat="43.57531" lon="7.04851">
        <ele>163.3</ele>
        <time>2014-10-26T14:40:00Z</time>
      </trkpt>
      <trkpt lat="43.57537" lon="7.04832">
        <ele>165.5</ele>
        <time>2014-10-26T14:40:06Z</time>
      </trkpt>
      <trkpt lat="43.57543" lon="7.04819">
        <ele>166.3</ele>
        <time>2014-10-26T14:40:10Z</time>
      </trkpt>
      <trkpt lat="43.57549" lon="7.04805">
        <ele>167.7</ele>
        <time>2014-10-26T14:40:15Z</time>
      </trkpt>
      <trkpt lat="43.57557" lon="7.04788">
        <ele>168.9</ele>
        <time>2014-10-26T14:40:21Z</time>
      </trkpt>
      <trkpt lat="43.57565" lon="7.04772">
        <ele>170.6</ele>
        <time>2014-10-26T14:40:27Z</time>
      </trkpt>
      <trkpt lat="43.57572" lon="7.04757">
        <ele>173</ele>
        <time>2014-10-26T14:40:33Z</time>
      </trkpt>
      <trkpt lat="43.5758" lon="7.04742">
        <ele>174.9</ele>
        <time>2014-10-26T14:40:39Z</time>
      </trkpt>
      <trkpt lat="43.57586" lon="7.04726">
        <ele>175.4</ele>
        <time>2014-10-26T14:40:45Z</time>
      </trkpt>
      <trkpt lat="43.57594" lon="7.04713">
        <ele>176</ele>
        <time>2014-10-26T14:40:51Z</time>
      </trkpt>
      <trkpt lat="43.57603" lon="7.047">
        <ele>176.5</ele>
        <time>2014-10-26T14:40:57Z</time>
      </trkpt>
      <trkpt lat="43.57615" lon="7.04699">
        <ele>178.3</ele>
        <time>2014-10-26T14:41:02Z</time>
      </trkpt>
      <trkpt lat="43.57627" lon="7.04707">
        <ele>179.8</ele>
        <time>2014-10-26T14:41:08Z</time>
      </trkpt>
      <trkpt lat="43.57635" lon="7.04713">
        <ele>181.3</ele>
        <time>2014-10-26T14:41:12Z</time>
      </trkpt>
      <trkpt lat="43.57646" lon="7.04724">
        <ele>181.7</ele>
        <time>2014-10-26T14:41:17Z</time>
      </trkpt>
      <trkpt lat="43.57659" lon="7.04735">
        <ele>182</ele>
        <time>2014-10-26T14:41:22Z</time>
      </trkpt>
      <trkpt lat="43.57677" lon="7.04746">
        <ele>183</ele>
        <time>2014-10-26T14:41:27Z</time>
      </trkpt>
      <trkpt lat="43.57689" lon="7.04754">
        <ele>182.9</ele>
        <time>2014-10-26T14:41:30Z</time>
      </trkpt>
      <trkpt lat="43.57726" lon="7.04767">
        <ele>183.7</ele>
        <time>2014-10-26T14:41:36Z</time>
      </trkpt>
      <trkpt lat="43.57776" lon="7.04772">
        <ele>179.8</ele>
        <time>2014-10-26T14:41:42Z</time>
      </trkpt>
      <trkpt lat="43.57819" lon="7.04792">
        <ele>180.7</ele>
        <time>2014-10-26T14:41:48Z</time>
      </trkpt>
      <trkpt lat="43.57841" lon="7.04816">
        <ele>180.7</ele>
        <time>2014-10-26T14:41:53Z</time>
      </trkpt>
      <trkpt lat="43.57862" lon="7.04836">
        <ele>182.4</ele>
        <time>2014-10-26T14:41:58Z</time>
      </trkpt>
      <trkpt lat="43.57884" lon="7.04854">
        <ele>184.1</ele>
        <time>2014-10-26T14:42:03Z</time>
      </trkpt>
      <trkpt lat="43.57916" lon="7.04878">
        <ele>182.5</ele>
        <time>2014-10-26T14:42:08Z</time>
      </trkpt>
      <trkpt lat="43.57942" lon="7.04936">
        <ele>180.7</ele>
        <time>2014-10-26T14:42:13Z</time>
      </trkpt>
      <trkpt lat="43.57968" lon="7.04974">
        <ele>180.4</ele>
        <time>2014-10-26T14:42:18Z</time>
      </trkpt>
      <trkpt lat="43.57993" lon="7.04981">
        <ele>181</ele>
        <time>2014-10-26T14:42:24Z</time>
      </trkpt>
      <trkpt lat="43.58008" lon="7.04986">
        <ele>182.2</ele>
        <time>2014-10-26T14:42:30Z</time>
      </trkpt>
      <trkpt lat="43.58023" lon="7.04993">
        <ele>183.3</ele>
        <time>2014-10-26T14:42:36Z</time>
      </trkpt>
      <trkpt lat="43.58038" lon="7.05006">
        <ele>185</ele>
        <time>2014-10-26T14:42:42Z</time>
      </trkpt>
      <trkpt lat="43.5805" lon="7.05022">
        <ele>186.8</ele>
        <time>2014-10-26T14:42:47Z</time>
      </trkpt>
      <trkpt lat="43.58059" lon="7.0504">
        <ele>189.6</ele>
        <time>2014-10-26T14:42:52Z</time>
      </trkpt>
      <trkpt lat="43.5807" lon="7.05058">
        <ele>191.5</ele>
        <time>2014-10-26T14:42:57Z</time>
      </trkpt>
      <trkpt lat="43.5808" lon="7.05073">
        <ele>194.6</ele>
        <time>2014-10-26T14:43:02Z</time>
      </trkpt>
      <trkpt lat="43.58089" lon="7.05087">
        <ele>195.2</ele>
        <time>2014-10-26T14:43:07Z</time>
      </trkpt>
      <trkpt lat="43.58102" lon="7.05098">
        <ele>195.7</ele>
        <time>2014-10-26T14:43:13Z</time>
      </trkpt>
      <trkpt lat="43.58118" lon="7.051">
        <ele>195.5</ele>
        <time>2014-10-26T14:43:18Z</time>
      </trkpt>
      <trkpt lat="43.58139" lon="7.05099">
        <ele>194.5</ele>
        <time>2014-10-26T14:43:23Z</time>
      </trkpt>
      <trkpt lat="43.58167" lon="7.05093">
        <ele>194</ele>
        <time>2014-10-26T14:43:28Z</time>
      </trkpt>
      <trkpt lat="43.58197" lon="7.0508">
        <ele>192.1</ele>
        <time>2014-10-26T14:43:33Z</time>
      </trkpt>
      <trkpt lat="43.58224" lon="7.05094">
        <ele>193.1</ele>
        <time>2014-10-26T14:43:38Z</time>
      </trkpt>
      <trkpt lat="43.58244" lon="7.05086">
        <ele>191.2</ele>
        <time>2014-10-26T14:43:43Z</time>
      </trkpt>
      <trkpt lat="43.5826" lon="7.05077">
        <ele>190.6</ele>
        <time>2014-10-26T14:43:48Z</time>
      </trkpt>
      <trkpt lat="43.58278" lon="7.05067">
        <ele>190.6</ele>
        <time>2014-10-26T14:43:54Z</time>
      </trkpt>
      <trkpt lat="43.58292" lon="7.05057">
        <ele>190.9</ele>
        <time>2014-10-26T14:43:59Z</time>
      </trkpt>
      <trkpt lat="43.58306" lon="7.05045">
        <ele>192.4</ele>
        <time>2014-10-26T14:44:04Z</time>
      </trkpt>
      <trkpt lat="43.58319" lon="7.05031">
        <ele>193.9</ele>
        <time>2014-10-26T14:44:09Z</time>
      </trkpt>
      <trkpt lat="43.58332" lon="7.05019">
        <ele>195.3</ele>
        <time>2014-10-26T14:44:14Z</time>
      </trkpt>
      <trkpt lat="43.58347" lon="7.05012">
        <ele>195.1</ele>
        <time>2014-10-26T14:44:19Z</time>
      </trkpt>
      <trkpt lat="43.58364" lon="7.05012">
        <ele>195.6</ele>
        <time>2014-10-26T14:44:24Z</time>
      </trkpt>
      <trkpt lat="43.58382" lon="7.05016">
        <ele>196.6</ele>
        <time>2014-10-26T14:44:30Z</time>
      </trkpt>
      <trkpt lat="43.58397" lon="7.05013">
        <ele>197.7</ele>
        <time>2014-10-26T14:44:36Z</time>
      </trkpt>
      <trkpt lat="43.58409" lon="7.05009">
        <ele>199.5</ele>
        <time>2014-10-26T14:44:41Z</time>
      </trkpt>
      <trkpt lat="43.5842" lon="7.05014">
        <ele>200.1</ele>
        <time>2014-10-26T14:44:47Z</time>
      </trkpt>
      <trkpt lat="43.58431" lon="7.05017">
        <ele>200.8</ele>
        <time>2014-10-26T14:44:53Z</time>
      </trkpt>
      <trkpt lat="43.5844" lon="7.05016">
        <ele>201.6</ele>
        <time>2014-10-26T14:44:59Z</time>
      </trkpt>
      <trkpt lat="43.58449" lon="7.05015">
        <ele>202.4</ele>
        <time>2014-10-26T14:45:05Z</time>
      </trkpt>
      <trkpt lat="43.58459" lon="7.05014">
        <ele>204.3</ele>
        <time>2014-10-26T14:45:13Z</time>
      </trkpt>
      <trkpt lat="43.58469" lon="7.05006">
        <ele>205.5</ele>
        <time>2014-10-26T14:45:22Z</time>
      </trkpt>
      <trkpt lat="43.58477" lon="7.05001">
        <ele>205.7</ele>
        <time>2014-10-26T14:45:28Z</time>
      </trkpt>
      <trkpt lat="43.58486" lon="7.04991">
        <ele>205.7</ele>
        <time>2014-10-26T14:45:34Z</time>
      </trkpt>
      <trkpt lat="43.58493" lon="7.04986">
        <ele>206.6</ele>
        <time>2014-10-26T14:45:40Z</time>
      </trkpt>
      <trkpt lat="43.58503" lon="7.04987">
        <ele>209.1</ele>
        <time>2014-10-26T14:45:47Z</time>
      </trkpt>
      <trkpt lat="43.58513" lon="7.04985">
        <ele>210.4</ele>
        <time>2014-10-26T14:45:53Z</time>
      </trkpt>
      <trkpt lat="43.58533" lon="7.04988">
        <ele>213.8</ele>
        <time>2014-10-26T14:46:15Z</time>
      </trkpt>
      <trkpt lat="43.58543" lon="7.04981">
        <ele>217</ele>
        <time>2014-10-26T14:46:26Z</time>
      </trkpt>
      <trkpt lat="43.58549" lon="7.04974">
        <ele>218.7</ele>
        <time>2014-10-26T14:46:30Z</time>
      </trkpt>
      <trkpt lat="43.58555" lon="7.04972">
        <ele>221.9</ele>
        <time>2014-10-26T14:46:35Z</time>
      </trkpt>
      <trkpt lat="43.58564" lon="7.04962">
        <ele>226</ele>
        <time>2014-10-26T14:46:48Z</time>
      </trkpt>
      <trkpt lat="43.58575" lon="7.04955">
        <ele>227.4</ele>
        <time>2014-10-26T14:46:54Z</time>
      </trkpt>
      <trkpt lat="43.58583" lon="7.04948">
        <ele>229.4</ele>
        <time>2014-10-26T14:47:04Z</time>
      </trkpt>
      <trkpt lat="43.58583" lon="7.04932">
        <ele>229.4</ele>
        <time>2014-10-26T14:47:10Z</time>
      </trkpt>
      <trkpt lat="43.58577" lon="7.04914">
        <ele>230</ele>
        <time>2014-10-26T14:47:16Z</time>
      </trkpt>
      <trkpt lat="43.58571" lon="7.04897">
        <ele>231.1</ele>
        <time>2014-10-26T14:47:21Z</time>
      </trkpt>
      <trkpt lat="43.58564" lon="7.04879">
        <ele>233.2</ele>
        <time>2014-10-26T14:47:26Z</time>
      </trkpt>
      <trkpt lat="43.58555" lon="7.04861">
        <ele>234.4</ele>
        <time>2014-10-26T14:47:31Z</time>
      </trkpt>
      <trkpt lat="43.58546" lon="7.04846">
        <ele>235.8</ele>
        <time>2014-10-26T14:47:36Z</time>
      </trkpt>
      <trkpt lat="43.58536" lon="7.04824">
        <ele>237</ele>
        <time>2014-10-26T14:47:42Z</time>
      </trkpt>
      <trkpt lat="43.58528" lon="7.04799">
        <ele>237.6</ele>
        <time>2014-10-26T14:47:48Z</time>
      </trkpt>
      <trkpt lat="43.58519" lon="7.04773">
        <ele>238</ele>
        <time>2014-10-26T14:47:54Z</time>
      </trkpt>
      <trkpt lat="43.58512" lon="7.0475">
        <ele>240</ele>
        <time>2014-10-26T14:47:59Z</time>
      </trkpt>
      <trkpt lat="43.58518" lon="7.04727">
        <ele>241.9</ele>
        <time>2014-10-26T14:48:04Z</time>
      </trkpt>
      <trkpt lat="43.58526" lon="7.04704">
        <ele>243</ele>
        <time>2014-10-26T14:48:09Z</time>
      </trkpt>
      <trkpt lat="43.58534" lon="7.0468">
        <ele>243.8</ele>
        <time>2014-10-26T14:48:14Z</time>
      </trkpt>
      <trkpt lat="43.58542" lon="7.04658">
        <ele>244.8</ele>
        <time>2014-10-26T14:48:19Z</time>
      </trkpt>
      <trkpt lat="43.58553" lon="7.04642">
        <ele>245.6</ele>
        <time>2014-10-26T14:48:24Z</time>
      </trkpt>
      <trkpt lat="43.58564" lon="7.04633">
        <ele>245.5</ele>
        <time>2014-10-26T14:48:29Z</time>
      </trkpt>
      <trkpt lat="43.58578" lon="7.04625">
        <ele>245.9</ele>
        <time>2014-10-26T14:48:35Z</time>
      </trkpt>
      <trkpt lat="43.58591" lon="7.0462">
        <ele>246.7</ele>
        <time>2014-10-26T14:48:41Z</time>
      </trkpt>
      <trkpt lat="43.58604" lon="7.04613">
        <ele>246.6</ele>
        <time>2014-10-26T14:48:47Z</time>
      </trkpt>
      <trkpt lat="43.58616" lon="7.04608">
        <ele>247.4</ele>
        <time>2014-10-26T14:48:54Z</time>
      </trkpt>
      <trkpt lat="43.58627" lon="7.04607">
        <ele>248.6</ele>
        <time>2014-10-26T14:49:00Z</time>
      </trkpt>
      <trkpt lat="43.58639" lon="7.04609">
        <ele>248.6</ele>
        <time>2014-10-26T14:49:06Z</time>
      </trkpt>
      <trkpt lat="43.5865" lon="7.04611">
        <ele>251</ele>
        <time>2014-10-26T14:49:12Z</time>
      </trkpt>
      <trkpt lat="43.58662" lon="7.04614">
        <ele>252.4</ele>
        <time>2014-10-26T14:49:18Z</time>
      </trkpt>
      <trkpt lat="43.58675" lon="7.04615">
        <ele>253.3</ele>
        <time>2014-10-26T14:49:24Z</time>
      </trkpt>
      <trkpt lat="43.58685" lon="7.04614">
        <ele>254.1</ele>
        <time>2014-10-26T14:49:30Z</time>
      </trkpt>
      <trkpt lat="43.58691" lon="7.04609">
        <ele>256.7</ele>
        <time>2014-10-26T14:49:35Z</time>
      </trkpt>
      <trkpt lat="43.58689" lon="7.04605">
        <ele>256.4</ele>
        <time>2014-10-26T14:49:41Z</time>
      </trkpt>
      <trkpt lat="43.58681" lon="7.04596">
        <ele>258.4</ele>
        <time>2014-10-26T14:49:48Z</time>
      </trkpt>
      <trkpt lat="43.58677" lon="7.04587">
        <ele>259.4</ele>
        <time>2014-10-26T14:49:54Z</time>
      </trkpt>
      <trkpt lat="43.58673" lon="7.04573">
        <ele>260</ele>
        <time>2014-10-26T14:50:00Z</time>
      </trkpt>
      <trkpt lat="43.58666" lon="7.04565">
        <ele>261.6</ele>
        <time>2014-10-26T14:50:05Z</time>
      </trkpt>
      <trkpt lat="43.58662" lon="7.04551">
        <ele>264.6</ele>
        <time>2014-10-26T14:50:10Z</time>
      </trkpt>
      <trkpt lat="43.58659" lon="7.04534">
        <ele>267.2</ele>
        <time>2014-10-26T14:50:15Z</time>
      </trkpt>
      <trkpt lat="43.58657" lon="7.04526">
        <ele>270.5</ele>
        <time>2014-10-26T14:50:21Z</time>
      </trkpt>
      <trkpt lat="43.58655" lon="7.04523">
        <ele>271.8</ele>
        <time>2014-10-26T14:50:23Z</time>
      </trkpt>
      <trkpt lat="43.58646" lon="7.04515">
        <ele>273.2</ele>
        <time>2014-10-26T14:50:29Z</time>
      </trkpt>
      <trkpt lat="43.58642" lon="7.04501">
        <ele>272.1</ele>
        <time>2014-10-26T14:50:35Z</time>
      </trkpt>
      <trkpt lat="43.5864" lon="7.04487">
        <ele>268.2</ele>
        <time>2014-10-26T14:50:40Z</time>
      </trkpt>
      <trkpt lat="43.58646" lon="7.04488">
        <ele>269.5</ele>
        <time>2014-10-26T14:50:46Z</time>
      </trkpt>
      <trkpt lat="43.5866" lon="7.04495">
        <ele>272.6</ele>
        <time>2014-10-26T14:50:51Z</time>
      </trkpt>
      <trkpt lat="43.58671" lon="7.04506">
        <ele>275</ele>
        <time>2014-10-26T14:50:57Z</time>
      </trkpt>
      <trkpt lat="43.5868" lon="7.04517">
        <ele>274.3</ele>
        <time>2014-10-26T14:51:02Z</time>
      </trkpt>
      <trkpt lat="43.58683" lon="7.0452">
        <ele>274</ele>
        <time>2014-10-26T14:51:03Z</time>
      </trkpt>
      <trkpt lat="43.58698" lon="7.04528">
        <ele>273.7</ele>
        <time>2014-10-26T14:51:09Z</time>
      </trkpt>
      <trkpt lat="43.58701" lon="7.04528">
        <ele>273.4</ele>
        <time>2014-10-26T14:51:10Z</time>
      </trkpt>
      <trkpt lat="43.58709" lon="7.04534">
        <ele>273.9</ele>
        <time>2014-10-26T14:51:15Z</time>
      </trkpt>
      <trkpt lat="43.58722" lon="7.0454">
        <ele>273.1</ele>
        <time>2014-10-26T14:51:21Z</time>
      </trkpt>
      <trkpt lat="43.58729" lon="7.04541">
        <ele>272.3</ele>
        <time>2014-10-26T14:51:27Z</time>
      </trkpt>
      <trkpt lat="43.58751" lon="7.04533">
        <ele>272.6</ele>
        <time>2014-10-26T14:51:42Z</time>
      </trkpt>
      <trkpt lat="43.58758" lon="7.04533">
        <ele>273.7</ele>
        <time>2014-10-26T14:51:47Z</time>
      </trkpt>
      <trkpt lat="43.58769" lon="7.04535">
        <ele>274.8</ele>
        <time>2014-10-26T14:51:53Z</time>
      </trkpt>
      <trkpt lat="43.58779" lon="7.04541">
        <ele>275.8</ele>
        <time>2014-10-26T14:51:59Z</time>
      </trkpt>
      <trkpt lat="43.58785" lon="7.04548">
        <ele>277.9</ele>
        <time>2014-10-26T14:52:04Z</time>
      </trkpt>
      <trkpt lat="43.58792" lon="7.04556">
        <ele>280.4</ele>
        <time>2014-10-26T14:52:09Z</time>
      </trkpt>
      <trkpt lat="43.58796" lon="7.04571">
        <ele>280</ele>
        <time>2014-10-26T14:52:14Z</time>
      </trkpt>
      <trkpt lat="43.58804" lon="7.0458">
        <ele>282.1</ele>
        <time>2014-10-26T14:52:20Z</time>
      </trkpt>
      <trkpt lat="43.58812" lon="7.04585">
        <ele>284</ele>
        <time>2014-10-26T14:52:26Z</time>
      </trkpt>
      <trkpt lat="43.58818" lon="7.04593">
        <ele>285.7</ele>
        <time>2014-10-26T14:52:32Z</time>
      </trkpt>
      <trkpt lat="43.58818" lon="7.04602">
        <ele>288.6</ele>
        <time>2014-10-26T14:55:02Z</time>
      </trkpt>
      <trkpt lat="43.58823" lon="7.04602">
        <ele>290.7</ele>
        <time>2014-10-26T14:55:28Z</time>
      </trkpt>
      <trkpt lat="43.5882" lon="7.04601">
        <ele>288.6</ele>
        <time>2014-10-26T14:55:30Z</time>
      </trkpt>
      <trkpt lat="43.58825" lon="7.04596">
        <ele>283.7</ele>
        <time>2014-10-26T14:55:43Z</time>
      </trkpt>
      <trkpt lat="43.58829" lon="7.04596">
        <ele>283.8</ele>
        <time>2014-10-26T14:55:45Z</time>
      </trkpt>
      <trkpt lat="43.58843" lon="7.04594">
        <ele>285.4</ele>
        <time>2014-10-26T14:55:51Z</time>
      </trkpt>
      <trkpt lat="43.58858" lon="7.04593">
        <ele>285.2</ele>
        <time>2014-10-26T14:55:56Z</time>
      </trkpt>
      <trkpt lat="43.58873" lon="7.04593">
        <ele>286.7</ele>
        <time>2014-10-26T14:56:01Z</time>
      </trkpt>
      <trkpt lat="43.5889" lon="7.04605">
        <ele>287.2</ele>
        <time>2014-10-26T14:56:07Z</time>
      </trkpt>
      <trkpt lat="43.58905" lon="7.04611">
        <ele>287.9</ele>
        <time>2014-10-26T14:56:13Z</time>
      </trkpt>
      <trkpt lat="43.5892" lon="7.04614">
        <ele>287.5</ele>
        <time>2014-10-26T14:56:18Z</time>
      </trkpt>
      <trkpt lat="43.58926" lon="7.04616">
        <ele>287.8</ele>
        <time>2014-10-26T14:56:20Z</time>
      </trkpt>
      <trkpt lat="43.58939" lon="7.04624">
        <ele>286.6</ele>
        <time>2014-10-26T14:56:25Z</time>
      </trkpt>
      <trkpt lat="43.58955" lon="7.04635">
        <ele>283.5</ele>
        <time>2014-10-26T14:56:30Z</time>
      </trkpt>
      <trkpt lat="43.58979" lon="7.04656">
        <ele>282.6</ele>
        <time>2014-10-26T14:56:36Z</time>
      </trkpt>
      <trkpt lat="43.58994" lon="7.04662">
        <ele>283.3</ele>
        <time>2014-10-26T14:56:42Z</time>
      </trkpt>
      <trkpt lat="43.59" lon="7.04674">
        <ele>282.9</ele>
        <time>2014-10-26T14:57:04Z</time>
      </trkpt>
      <trkpt lat="43.5902" lon="7.04678">
        <ele>282</ele>
        <time>2014-10-26T14:57:10Z</time>
      </trkpt>
      <trkpt lat="43.59037" lon="7.0468">
        <ele>278.5</ele>
        <time>2014-10-26T14:57:15Z</time>
      </trkpt>
      <trkpt lat="43.59057" lon="7.04688">
        <ele>271.7</ele>
        <time>2014-10-26T14:57:21Z</time>
      </trkpt>
      <trkpt lat="43.59068" lon="7.04698">
        <ele>274.5</ele>
        <time>2014-10-26T14:57:26Z</time>
      </trkpt>
      <trkpt lat="43.59071" lon="7.04698">
        <ele>276.7</ele>
        <time>2014-10-26T14:57:37Z</time>
      </trkpt>
      <trkpt lat="43.59075" lon="7.04707">
        <ele>277.6</ele>
        <time>2014-10-26T14:57:42Z</time>
      </trkpt>
      <trkpt lat="43.59079" lon="7.04702">
        <ele>279.5</ele>
        <time>2014-10-26T14:58:09Z</time>
      </trkpt>
      <trkpt lat="43.59088" lon="7.04698">
        <ele>277.3</ele>
        <time>2014-10-26T14:58:17Z</time>
      </trkpt>
      <trkpt lat="43.59104" lon="7.04694">
        <ele>277.6</ele>
        <time>2014-10-26T14:58:22Z</time>
      </trkpt>
      <trkpt lat="43.59129" lon="7.04687">
        <ele>276</ele>
        <time>2014-10-26T14:58:27Z</time>
      </trkpt>
      <trkpt lat="43.59153" lon="7.04681">
        <ele>270.7</ele>
        <time>2014-10-26T14:58:32Z</time>
      </trkpt>
      <trkpt lat="43.5917" lon="7.04683">
        <ele>269.6</ele>
        <time>2014-10-26T14:58:38Z</time>
      </trkpt>
      <trkpt lat="43.59167" lon="7.04686">
        <ele>267.2</ele>
        <time>2014-10-26T14:58:51Z</time>
      </trkpt>
      <trkpt lat="43.5917" lon="7.04697">
        <ele>266.9</ele>
        <time>2014-10-26T14:59:14Z</time>
      </trkpt>
      <trkpt lat="43.59178" lon="7.04683">
        <ele>264.6</ele>
        <time>2014-10-26T14:59:32Z</time>
      </trkpt>
      <trkpt lat="43.59184" lon="7.04677">
        <ele>264.7</ele>
        <time>2014-10-26T14:59:38Z</time>
      </trkpt>
      <trkpt lat="43.59187" lon="7.04675">
        <ele>263.4</ele>
        <time>2014-10-26T14:59:42Z</time>
      </trkpt>
      <trkpt lat="43.59202" lon="7.04669">
        <ele>262.2</ele>
        <time>2014-10-26T14:59:47Z</time>
      </trkpt>
      <trkpt lat="43.59213" lon="7.04658">
        <ele>259.7</ele>
        <time>2014-10-26T14:59:52Z</time>
      </trkpt>
      <trkpt lat="43.59225" lon="7.04648">
        <ele>259.9</ele>
        <time>2014-10-26T14:59:57Z</time>
      </trkpt>
      <trkpt lat="43.59232" lon="7.04635">
        <ele>259.8</ele>
        <time>2014-10-26T15:00:03Z</time>
      </trkpt>
      <trkpt lat="43.59239" lon="7.04614">
        <ele>259.2</ele>
        <time>2014-10-26T15:00:09Z</time>
      </trkpt>
      <trkpt lat="43.59244" lon="7.04601">
        <ele>257.2</ele>
        <time>2014-10-26T15:00:13Z</time>
      </trkpt>
      <trkpt lat="43.59238" lon="7.04584">
        <ele>254.3</ele>
        <time>2014-10-26T15:00:18Z</time>
      </trkpt>
      <trkpt lat="43.59239" lon="7.04564">
        <ele>253.7</ele>
        <time>2014-10-26T15:00:23Z</time>
      </trkpt>
      <trkpt lat="43.5925" lon="7.04556">
        <ele>251.3</ele>
        <time>2014-10-26T15:00:28Z</time>
      </trkpt>
      <trkpt lat="43.59264" lon="7.04561">
        <ele>248.6</ele>
        <time>2014-10-26T15:00:33Z</time>
      </trkpt>
      <trkpt lat="43.59276" lon="7.04571">
        <ele>245</ele>
        <time>2014-10-26T15:00:39Z</time>
      </trkpt>
      <trkpt lat="43.59288" lon="7.04601">
        <ele>235.6</ele>
        <time>2014-10-26T15:02:00Z</time>
      </trkpt>
      <trkpt lat="43.59289" lon="7.04621">
        <ele>239.7</ele>
        <time>2014-10-26T15:02:06Z</time>
      </trkpt>
      <trkpt lat="43.59287" lon="7.04639">
        <ele>238.8</ele>
        <time>2014-10-26T15:02:11Z</time>
      </trkpt>
      <trkpt lat="43.5929" lon="7.04657">
        <ele>237.9</ele>
        <time>2014-10-26T15:02:16Z</time>
      </trkpt>
      <trkpt lat="43.59288" lon="7.04675">
        <ele>239.7</ele>
        <time>2014-10-26T15:02:22Z</time>
      </trkpt>
      <trkpt lat="43.59288" lon="7.04695">
        <ele>238.8</ele>
        <time>2014-10-26T15:02:27Z</time>
      </trkpt>
      <trkpt lat="43.59286" lon="7.0472">
        <ele>239.9</ele>
        <time>2014-10-26T15:02:33Z</time>
      </trkpt>
      <trkpt lat="43.59283" lon="7.04737">
        <ele>241.6</ele>
        <time>2014-10-26T15:02:38Z</time>
      </trkpt>
      <trkpt lat="43.59274" lon="7.0475">
        <ele>237.7</ele>
        <time>2014-10-26T15:02:45Z</time>
      </trkpt>
      <trkpt lat="43.59271" lon="7.04766">
        <ele>237.8</ele>
        <time>2014-10-26T15:02:50Z</time>
      </trkpt>
      <trkpt lat="43.59266" lon="7.04785">
        <ele>238.5</ele>
        <time>2014-10-26T15:02:56Z</time>
      </trkpt>
      <trkpt lat="43.59261" lon="7.04805">
        <ele>239</ele>
        <time>2014-10-26T15:03:02Z</time>
      </trkpt>
      <trkpt lat="43.59252" lon="7.04824">
        <ele>238.8</ele>
        <time>2014-10-26T15:03:08Z</time>
      </trkpt>
      <trkpt lat="43.59249" lon="7.04841">
        <ele>240.2</ele>
        <time>2014-10-26T15:03:13Z</time>
      </trkpt>
      <trkpt lat="43.59246" lon="7.04863">
        <ele>240.8</ele>
        <time>2014-10-26T15:03:18Z</time>
      </trkpt>
      <trkpt lat="43.59239" lon="7.04881">
        <ele>241.6</ele>
        <time>2014-10-26T15:03:24Z</time>
      </trkpt>
      <trkpt lat="43.59232" lon="7.04898">
        <ele>242.6</ele>
        <time>2014-10-26T15:03:30Z</time>
      </trkpt>
      <trkpt lat="43.59226" lon="7.04915">
        <ele>242.2</ele>
        <time>2014-10-26T15:03:36Z</time>
      </trkpt>
      <trkpt lat="43.59225" lon="7.04932">
        <ele>241.1</ele>
        <time>2014-10-26T15:03:41Z</time>
      </trkpt>
      <trkpt lat="43.59235" lon="7.04949">
        <ele>240.5</ele>
        <time>2014-10-26T15:03:46Z</time>
      </trkpt>
      <trkpt lat="43.59248" lon="7.04948">
        <ele>239</ele>
        <time>2014-10-26T15:03:51Z</time>
      </trkpt>
      <trkpt lat="43.59269" lon="7.04952">
        <ele>238.3</ele>
        <time>2014-10-26T15:03:56Z</time>
      </trkpt>
      <trkpt lat="43.59294" lon="7.04971">
        <ele>237.3</ele>
        <time>2014-10-26T15:04:01Z</time>
      </trkpt>
      <trkpt lat="43.59327" lon="7.05005">
        <ele>232.1</ele>
        <time>2014-10-26T15:04:06Z</time>
      </trkpt>
      <trkpt lat="43.5934" lon="7.04986">
        <ele>226.4</ele>
        <time>2014-10-26T15:04:12Z</time>
      </trkpt>
      <trkpt lat="43.59343" lon="7.04961">
        <ele>222.8</ele>
        <time>2014-10-26T15:04:18Z</time>
      </trkpt>
      <trkpt lat="43.59345" lon="7.04948">
        <ele>220.4</ele>
        <time>2014-10-26T15:04:21Z</time>
      </trkpt>
      <trkpt lat="43.5935" lon="7.04921">
        <ele>219.1</ele>
        <time>2014-10-26T15:04:26Z</time>
      </trkpt>
      <trkpt lat="43.59355" lon="7.04894">
        <ele>217.5</ele>
        <time>2014-10-26T15:04:31Z</time>
      </trkpt>
      <trkpt lat="43.5936" lon="7.04864">
        <ele>216.4</ele>
        <time>2014-10-26T15:04:36Z</time>
      </trkpt>
      <trkpt lat="43.59366" lon="7.04829">
        <ele>215.1</ele>
        <time>2014-10-26T15:04:41Z</time>
      </trkpt>
      <trkpt lat="43.59371" lon="7.04802">
        <ele>213.8</ele>
        <time>2014-10-26T15:04:46Z</time>
      </trkpt>
      <trkpt lat="43.59375" lon="7.04779">
        <ele>212.6</ele>
        <time>2014-10-26T15:04:51Z</time>
      </trkpt>
      <trkpt lat="43.59381" lon="7.04756">
        <ele>212.7</ele>
        <time>2014-10-26T15:04:56Z</time>
      </trkpt>
      <trkpt lat="43.59385" lon="7.04723">
        <ele>212</ele>
        <time>2014-10-26T15:05:01Z</time>
      </trkpt>
      <trkpt lat="43.59393" lon="7.0467">
        <ele>208.5</ele>
        <time>2014-10-26T15:05:06Z</time>
      </trkpt>
      <trkpt lat="43.59399" lon="7.04609">
        <ele>204.5</ele>
        <time>2014-10-26T15:05:12Z</time>
      </trkpt>
      <trkpt lat="43.59404" lon="7.04558">
        <ele>203.5</ele>
        <time>2014-10-26T15:05:18Z</time>
      </trkpt>
      <trkpt lat="43.59419" lon="7.04526">
        <ele>202.1</ele>
        <time>2014-10-26T15:05:24Z</time>
      </trkpt>
      <trkpt lat="43.59444" lon="7.04496">
        <ele>200.4</ele>
        <time>2014-10-26T15:05:30Z</time>
      </trkpt>
      <trkpt lat="43.59442" lon="7.04441">
        <ele>196.9</ele>
        <time>2014-10-26T15:05:36Z</time>
      </trkpt>
      <trkpt lat="43.59443" lon="7.04396">
        <ele>196.4</ele>
        <time>2014-10-26T15:05:42Z</time>
      </trkpt>
      <trkpt lat="43.59447" lon="7.0436">
        <ele>196</ele>
        <time>2014-10-26T15:05:48Z</time>
      </trkpt>
      <trkpt lat="43.59441" lon="7.04327">
        <ele>195.8</ele>
        <time>2014-10-26T15:05:54Z</time>
      </trkpt>
      <trkpt lat="43.59435" lon="7.04295">
        <ele>196.1</ele>
        <time>2014-10-26T15:06:00Z</time>
      </trkpt>
      <trkpt lat="43.59428" lon="7.0426">
        <ele>196.5</ele>
        <time>2014-10-26T15:06:06Z</time>
      </trkpt>
      <trkpt lat="43.59421" lon="7.04228">
        <ele>197.1</ele>
        <time>2014-10-26T15:06:11Z</time>
      </trkpt>
      <trkpt lat="43.59415" lon="7.04202">
        <ele>198</ele>
        <time>2014-10-26T15:06:16Z</time>
      </trkpt>
      <trkpt lat="43.59407" lon="7.04175">
        <ele>198.8</ele>
        <time>2014-10-26T15:06:21Z</time>
      </trkpt>
      <trkpt lat="43.59399" lon="7.04142">
        <ele>199</ele>
        <time>2014-10-26T15:06:26Z</time>
      </trkpt>
      <trkpt lat="43.59388" lon="7.04105">
        <ele>198.9</ele>
        <time>2014-10-26T15:06:31Z</time>
      </trkpt>
      <trkpt lat="43.59372" lon="7.04078">
        <ele>199.2</ele>
        <time>2014-10-26T15:06:36Z</time>
      </trkpt>
      <trkpt lat="43.59355" lon="7.04068">
        <ele>201</ele>
        <time>2014-10-26T15:06:42Z</time>
      </trkpt>
      <trkpt lat="43.59359" lon="7.04048">
        <ele>200.8</ele>
        <time>2014-10-26T15:06:48Z</time>
      </trkpt>
      <trkpt lat="43.59371" lon="7.04028">
        <ele>201.4</ele>
        <time>2014-10-26T15:06:53Z</time>
      </trkpt>
      <trkpt lat="43.59383" lon="7.04007">
        <ele>201.6</ele>
        <time>2014-10-26T15:06:58Z</time>
      </trkpt>
      <trkpt lat="43.59397" lon="7.03984">
        <ele>203.5</ele>
        <time>2014-10-26T15:07:03Z</time>
      </trkpt>
      <trkpt lat="43.5941" lon="7.03966">
        <ele>204.9</ele>
        <time>2014-10-26T15:07:09Z</time>
      </trkpt>
      <trkpt lat="43.59423" lon="7.03955">
        <ele>206.1</ele>
        <time>2014-10-26T15:07:14Z</time>
      </trkpt>
      <trkpt lat="43.59435" lon="7.03937">
        <ele>207.4</ele>
        <time>2014-10-26T15:07:19Z</time>
      </trkpt>
      <trkpt lat="43.59446" lon="7.03919">
        <ele>208.3</ele>
        <time>2014-10-26T15:07:24Z</time>
      </trkpt>
      <trkpt lat="43.5946" lon="7.039">
        <ele>210.2</ele>
        <time>2014-10-26T15:07:30Z</time>
      </trkpt>
      <trkpt lat="43.5947" lon="7.03886">
        <ele>213.7</ele>
        <time>2014-10-26T15:07:35Z</time>
      </trkpt>
      <trkpt lat="43.5948" lon="7.03873">
        <ele>215.5</ele>
        <time>2014-10-26T15:07:40Z</time>
      </trkpt>
      <trkpt lat="43.59489" lon="7.03863">
        <ele>216.2</ele>
        <time>2014-10-26T15:07:46Z</time>
      </trkpt>
      <trkpt lat="43.59502" lon="7.03855">
        <ele>216.6</ele>
        <time>2014-10-26T15:07:51Z</time>
      </trkpt>
      <trkpt lat="43.59518" lon="7.03845">
        <ele>216.8</ele>
        <time>2014-10-26T15:07:57Z</time>
      </trkpt>
      <trkpt lat="43.59529" lon="7.03839">
        <ele>218.2</ele>
        <time>2014-10-26T15:08:03Z</time>
      </trkpt>
      <trkpt lat="43.59538" lon="7.03833">
        <ele>218.9</ele>
        <time>2014-10-26T15:08:08Z</time>
      </trkpt>
      <trkpt lat="43.5954" lon="7.03826">
        <ele>220.7</ele>
        <time>2014-10-26T15:08:13Z</time>
      </trkpt>
      <trkpt lat="43.59535" lon="7.03819">
        <ele>225.2</ele>
        <time>2014-10-26T15:08:18Z</time>
      </trkpt>
      <trkpt lat="43.59542" lon="7.03814">
        <ele>226.3</ele>
        <time>2014-10-26T15:08:29Z</time>
      </trkpt>
      <trkpt lat="43.59546" lon="7.03842">
        <ele>226.3</ele>
        <time>2014-10-26T15:08:35Z</time>
      </trkpt>
      <trkpt lat="43.59552" lon="7.03859">
        <ele>226.8</ele>
        <time>2014-10-26T15:08:40Z</time>
      </trkpt>
      <trkpt lat="43.59558" lon="7.03874">
        <ele>227.5</ele>
        <time>2014-10-26T15:08:45Z</time>
      </trkpt>
      <trkpt lat="43.59564" lon="7.03882">
        <ele>228.8</ele>
        <time>2014-10-26T15:08:50Z</time>
      </trkpt>
      <trkpt lat="43.59583" lon="7.03883">
        <ele>231.6</ele>
        <time>2014-10-26T15:09:20Z</time>
      </trkpt>
      <trkpt lat="43.5959" lon="7.03875">
        <ele>232.5</ele>
        <time>2014-10-26T15:09:26Z</time>
      </trkpt>
      <trkpt lat="43.59595" lon="7.0387">
        <ele>234.7</ele>
        <time>2014-10-26T15:09:32Z</time>
      </trkpt>
      <trkpt lat="43.59603" lon="7.03857">
        <ele>235.2</ele>
        <time>2014-10-26T15:09:38Z</time>
      </trkpt>
      <trkpt lat="43.5961" lon="7.03845">
        <ele>235.1</ele>
        <time>2014-10-26T15:09:43Z</time>
      </trkpt>
      <trkpt lat="43.59619" lon="7.03829">
        <ele>237.5</ele>
        <time>2014-10-26T15:09:49Z</time>
      </trkpt>
      <trkpt lat="43.59628" lon="7.03819">
        <ele>238.4</ele>
        <time>2014-10-26T15:09:55Z</time>
      </trkpt>
      <trkpt lat="43.59636" lon="7.0381">
        <ele>240</ele>
        <time>2014-10-26T15:10:03Z</time>
      </trkpt>
      <trkpt lat="43.59635" lon="7.03795">
        <ele>240.9</ele>
        <time>2014-10-26T15:10:09Z</time>
      </trkpt>
      <trkpt lat="43.59626" lon="7.03779">
        <ele>241.3</ele>
        <time>2014-10-26T15:10:14Z</time>
      </trkpt>
      <trkpt lat="43.59625" lon="7.03758">
        <ele>240</ele>
        <time>2014-10-26T15:10:20Z</time>
      </trkpt>
      <trkpt lat="43.59624" lon="7.03744">
        <ele>240.5</ele>
        <time>2014-10-26T15:10:25Z</time>
      </trkpt>
      <trkpt lat="43.59625" lon="7.03724">
        <ele>241.3</ele>
        <time>2014-10-26T15:10:30Z</time>
      </trkpt>
      <trkpt lat="43.59635" lon="7.03703">
        <ele>241.1</ele>
        <time>2014-10-26T15:10:36Z</time>
      </trkpt>
      <trkpt lat="43.59644" lon="7.03694">
        <ele>241.3</ele>
        <time>2014-10-26T15:10:42Z</time>
      </trkpt>
      <trkpt lat="43.59659" lon="7.03692">
        <ele>242.9</ele>
        <time>2014-10-26T15:10:48Z</time>
      </trkpt>
      <trkpt lat="43.59671" lon="7.03686">
        <ele>243.9</ele>
        <time>2014-10-26T15:10:53Z</time>
      </trkpt>
      <trkpt lat="43.59686" lon="7.03679">
        <ele>243.9</ele>
        <time>2014-10-26T15:10:58Z</time>
      </trkpt>
      <trkpt lat="43.59702" lon="7.03677">
        <ele>242.4</ele>
        <time>2014-10-26T15:11:03Z</time>
      </trkpt>
      <trkpt lat="43.59712" lon="7.03675">
        <ele>244.1</ele>
        <time>2014-10-26T15:11:07Z</time>
      </trkpt>
      <trkpt lat="43.59729" lon="7.03668">
        <ele>245.1</ele>
        <time>2014-10-26T15:11:12Z</time>
      </trkpt>
      <trkpt lat="43.59737" lon="7.0366">
        <ele>245.9</ele>
        <time>2014-10-26T15:11:19Z</time>
      </trkpt>
      <trkpt lat="43.59752" lon="7.03645">
        <ele>245.9</ele>
        <time>2014-10-26T15:11:52Z</time>
      </trkpt>
      <trkpt lat="43.59765" lon="7.03627">
        <ele>246.5</ele>
        <time>2014-10-26T15:11:58Z</time>
      </trkpt>
      <trkpt lat="43.59753" lon="7.03616">
        <ele>246.3</ele>
        <time>2014-10-26T15:12:04Z</time>
      </trkpt>
      <trkpt lat="43.59743" lon="7.03601">
        <ele>245.6</ele>
        <time>2014-10-26T15:12:09Z</time>
      </trkpt>
      <trkpt lat="43.59737" lon="7.03581">
        <ele>245.8</ele>
        <time>2014-10-26T15:12:14Z</time>
      </trkpt>
      <trkpt lat="43.59725" lon="7.03567">
        <ele>245</ele>
        <time>2014-10-26T15:12:19Z</time>
      </trkpt>
      <trkpt lat="43.59712" lon="7.03557">
        <ele>245.5</ele>
        <time>2014-10-26T15:12:24Z</time>
      </trkpt>
      <trkpt lat="43.59701" lon="7.03542">
        <ele>246.1</ele>
        <time>2014-10-26T15:12:30Z</time>
      </trkpt>
      <trkpt lat="43.59686" lon="7.03527">
        <ele>246.8</ele>
        <time>2014-10-26T15:12:36Z</time>
      </trkpt>
      <trkpt lat="43.59671" lon="7.03505">
        <ele>249.6</ele>
        <time>2014-10-26T15:12:42Z</time>
      </trkpt>
      <trkpt lat="43.59656" lon="7.0349">
        <ele>250</ele>
        <time>2014-10-26T15:12:47Z</time>
      </trkpt>
      <trkpt lat="43.59636" lon="7.03477">
        <ele>250</ele>
        <time>2014-10-26T15:12:52Z</time>
      </trkpt>
      <trkpt lat="43.59622" lon="7.03468">
        <ele>250.3</ele>
        <time>2014-10-26T15:12:57Z</time>
      </trkpt>
      <trkpt lat="43.59614" lon="7.03448">
        <ele>249.8</ele>
        <time>2014-10-26T15:13:02Z</time>
      </trkpt>
      <trkpt lat="43.59609" lon="7.03424">
        <ele>250.1</ele>
        <time>2014-10-26T15:13:07Z</time>
      </trkpt>
      <trkpt lat="43.59603" lon="7.03413">
        <ele>250.7</ele>
        <time>2014-10-26T15:13:12Z</time>
      </trkpt>
      <trkpt lat="43.59595" lon="7.03401">
        <ele>250.8</ele>
        <time>2014-10-26T15:13:18Z</time>
      </trkpt>
      <trkpt lat="43.59589" lon="7.03389">
        <ele>251.4</ele>
        <time>2014-10-26T15:13:23Z</time>
      </trkpt>
      <trkpt lat="43.59589" lon="7.03365">
        <ele>250</ele>
        <time>2014-10-26T15:13:28Z</time>
      </trkpt>
      <trkpt lat="43.59587" lon="7.03336">
        <ele>250.9</ele>
        <time>2014-10-26T15:13:33Z</time>
      </trkpt>
      <trkpt lat="43.59585" lon="7.03299">
        <ele>252.3</ele>
        <time>2014-10-26T15:13:38Z</time>
      </trkpt>
      <trkpt lat="43.59586" lon="7.03272">
        <ele>254.1</ele>
        <time>2014-10-26T15:13:43Z</time>
      </trkpt>
      <trkpt lat="43.59589" lon="7.03251">
        <ele>255.3</ele>
        <time>2014-10-26T15:13:48Z</time>
      </trkpt>
      <trkpt lat="43.59595" lon="7.03226">
        <ele>256.6</ele>
        <time>2014-10-26T15:13:54Z</time>
      </trkpt>
      <trkpt lat="43.59604" lon="7.03199">
        <ele>256.1</ele>
        <time>2014-10-26T15:13:59Z</time>
      </trkpt>
      <trkpt lat="43.59606" lon="7.03182">
        <ele>256.5</ele>
        <time>2014-10-26T15:14:05Z</time>
      </trkpt>
      <trkpt lat="43.59605" lon="7.03178">
        <ele>260.2</ele>
        <time>2014-10-26T15:14:31Z</time>
      </trkpt>
      <trkpt lat="43.59613" lon="7.03141">
        <ele>270.8</ele>
        <time>2014-10-26T15:14:37Z</time>
      </trkpt>
      <trkpt lat="43.59621" lon="7.0311">
        <ele>278.4</ele>
        <time>2014-10-26T15:14:42Z</time>
      </trkpt>
      <trkpt lat="43.59638" lon="7.03074">
        <ele>267.7</ele>
        <time>2014-10-26T15:14:48Z</time>
      </trkpt>
      <trkpt lat="43.59656" lon="7.03058">
        <ele>258.5</ele>
        <time>2014-10-26T15:14:51Z</time>
      </trkpt>
      <trkpt lat="43.59682" lon="7.0309">
        <ele>244.5</ele>
        <time>2014-10-26T15:14:56Z</time>
      </trkpt>
      <trkpt lat="43.59686" lon="7.03119">
        <ele>243</ele>
        <time>2014-10-26T15:16:02Z</time>
      </trkpt>
      <trkpt lat="43.59693" lon="7.03139">
        <ele>241.5</ele>
        <time>2014-10-26T15:16:07Z</time>
      </trkpt>
      <trkpt lat="43.59705" lon="7.03157">
        <ele>241.1</ele>
        <time>2014-10-26T15:16:12Z</time>
      </trkpt>
      <trkpt lat="43.59718" lon="7.03167">
        <ele>240.4</ele>
        <time>2014-10-26T15:16:17Z</time>
      </trkpt>
      <trkpt lat="43.59736" lon="7.03172">
        <ele>240.5</ele>
        <time>2014-10-26T15:16:22Z</time>
      </trkpt>
      <trkpt lat="43.59754" lon="7.03183">
        <ele>239.5</ele>
        <time>2014-10-26T15:16:27Z</time>
      </trkpt>
      <trkpt lat="43.59766" lon="7.0321">
        <ele>236.5</ele>
        <time>2014-10-26T15:16:53Z</time>
      </trkpt>
      <trkpt lat="43.5977" lon="7.03231">
        <ele>235.8</ele>
        <time>2014-10-26T15:16:58Z</time>
      </trkpt>
      <trkpt lat="43.5977" lon="7.03263">
        <ele>235.2</ele>
        <time>2014-10-26T15:17:03Z</time>
      </trkpt>
      <trkpt lat="43.59778" lon="7.03289">
        <ele>234.7</ele>
        <time>2014-10-26T15:17:08Z</time>
      </trkpt>
      <trkpt lat="43.59803" lon="7.03323">
        <ele>234.1</ele>
        <time>2014-10-26T15:17:13Z</time>
      </trkpt>
      <trkpt lat="43.59831" lon="7.03352">
        <ele>235.1</ele>
        <time>2014-10-26T15:17:18Z</time>
      </trkpt>
      <trkpt lat="43.59861" lon="7.03393">
        <ele>234</ele>
        <time>2014-10-26T15:17:24Z</time>
      </trkpt>
      <trkpt lat="43.59839" lon="7.03406">
        <ele>244.4</ele>
        <time>2014-10-26T15:18:42Z</time>
      </trkpt>
      <trkpt lat="43.59843" lon="7.03407">
        <ele>244.6</ele>
        <time>2014-10-26T15:18:49Z</time>
      </trkpt>
      <trkpt lat="43.59851" lon="7.03402">
        <ele>242.6</ele>
        <time>2014-10-26T15:18:54Z</time>
      </trkpt>
      <trkpt lat="43.59862" lon="7.0341">
        <ele>241.3</ele>
        <time>2014-10-26T15:18:59Z</time>
      </trkpt>
      <trkpt lat="43.5987" lon="7.03423">
        <ele>238.7</ele>
        <time>2014-10-26T15:19:05Z</time>
      </trkpt>
      <trkpt lat="43.59876" lon="7.03413">
        <ele>237.3</ele>
        <time>2014-10-26T15:19:12Z</time>
      </trkpt>
      <trkpt lat="43.59882" lon="7.03396">
        <ele>236.4</ele>
        <time>2014-10-26T15:19:17Z</time>
      </trkpt>
      <trkpt lat="43.59887" lon="7.03381">
        <ele>235.2</ele>
        <time>2014-10-26T15:19:22Z</time>
      </trkpt>
      <trkpt lat="43.59899" lon="7.03358">
        <ele>232.4</ele>
        <time>2014-10-26T15:19:27Z</time>
      </trkpt>
      <trkpt lat="43.59918" lon="7.0334">
        <ele>231</ele>
        <time>2014-10-26T15:19:33Z</time>
      </trkpt>
      <trkpt lat="43.59936" lon="7.0332">
        <ele>230.2</ele>
        <time>2014-10-26T15:19:38Z</time>
      </trkpt>
      <trkpt lat="43.59945" lon="7.03286">
        <ele>229.2</ele>
        <time>2014-10-26T15:19:43Z</time>
      </trkpt>
      <trkpt lat="43.59957" lon="7.03249">
        <ele>227.8</ele>
        <time>2014-10-26T15:19:48Z</time>
      </trkpt>
      <trkpt lat="43.59971" lon="7.03222">
        <ele>227.5</ele>
        <time>2014-10-26T15:19:53Z</time>
      </trkpt>
      <trkpt lat="43.59984" lon="7.03199">
        <ele>228.4</ele>
        <time>2014-10-26T15:19:58Z</time>
      </trkpt>
      <trkpt lat="43.60002" lon="7.03185">
        <ele>229.2</ele>
        <time>2014-10-26T15:20:03Z</time>
      </trkpt>
      <trkpt lat="43.60023" lon="7.03183">
        <ele>229.3</ele>
        <time>2014-10-26T15:20:08Z</time>
      </trkpt>
      <trkpt lat="43.6004" lon="7.03196">
        <ele>228.8</ele>
        <time>2014-10-26T15:20:13Z</time>
      </trkpt>
      <trkpt lat="43.60055" lon="7.03218">
        <ele>229.2</ele>
        <time>2014-10-26T15:20:18Z</time>
      </trkpt>
      <trkpt lat="43.60062" lon="7.03232">
        <ele>230.2</ele>
        <time>2014-10-26T15:20:23Z</time>
      </trkpt>
      <trkpt lat="43.60073" lon="7.0325">
        <ele>231.8</ele>
        <time>2014-10-26T15:20:28Z</time>
      </trkpt>
      <trkpt lat="43.60085" lon="7.03274">
        <ele>232.7</ele>
        <time>2014-10-26T15:20:33Z</time>
      </trkpt>
      <trkpt lat="43.60092" lon="7.03296">
        <ele>234.1</ele>
        <time>2014-10-26T15:20:38Z</time>
      </trkpt>
      <trkpt lat="43.601" lon="7.03314">
        <ele>235.3</ele>
        <time>2014-10-26T15:20:43Z</time>
      </trkpt>
      <trkpt lat="43.60106" lon="7.03331">
        <ele>235.5</ele>
        <time>2014-10-26T15:20:48Z</time>
      </trkpt>
      <trkpt lat="43.60119" lon="7.0336">
        <ele>236.3</ele>
        <time>2014-10-26T15:20:53Z</time>
      </trkpt>
      <trkpt lat="43.60128" lon="7.03384">
        <ele>235.3</ele>
        <time>2014-10-26T15:20:58Z</time>
      </trkpt>
      <trkpt lat="43.60135" lon="7.03407">
        <ele>236.2</ele>
        <time>2014-10-26T15:21:03Z</time>
      </trkpt>
      <trkpt lat="43.60141" lon="7.03434">
        <ele>236.3</ele>
        <time>2014-10-26T15:21:08Z</time>
      </trkpt>
      <trkpt lat="43.60142" lon="7.03462">
        <ele>236.3</ele>
        <time>2014-10-26T15:21:13Z</time>
      </trkpt>
      <trkpt lat="43.60151" lon="7.0349">
        <ele>235.2</ele>
        <time>2014-10-26T15:21:18Z</time>
      </trkpt>
      <trkpt lat="43.60155" lon="7.03519">
        <ele>233.3</ele>
        <time>2014-10-26T15:21:24Z</time>
      </trkpt>
      <trkpt lat="43.60172" lon="7.03549">
        <ele>231.7</ele>
        <time>2014-10-26T15:21:30Z</time>
      </trkpt>
      <trkpt lat="43.60187" lon="7.03542">
        <ele>230.4</ele>
        <time>2014-10-26T15:21:36Z</time>
      </trkpt>
      <trkpt lat="43.60192" lon="7.03528">
        <ele>229.4</ele>
        <time>2014-10-26T15:21:41Z</time>
      </trkpt>
      <trkpt lat="43.60189" lon="7.03509">
        <ele>229.2</ele>
        <time>2014-10-26T15:21:46Z</time>
      </trkpt>
      <trkpt lat="43.60177" lon="7.03481">
        <ele>228.9</ele>
        <time>2014-10-26T15:21:51Z</time>
      </trkpt>
      <trkpt lat="43.60189" lon="7.03457">
        <ele>229.1</ele>
        <time>2014-10-26T15:21:56Z</time>
      </trkpt>
      <trkpt lat="43.60194" lon="7.03431">
        <ele>230</ele>
        <time>2014-10-26T15:22:01Z</time>
      </trkpt>
      <trkpt lat="43.60196" lon="7.03398">
        <ele>230</ele>
        <time>2014-10-26T15:22:07Z</time>
      </trkpt>
      <trkpt lat="43.60206" lon="7.0337">
        <ele>230.1</ele>
        <time>2014-10-26T15:22:12Z</time>
      </trkpt>
      <trkpt lat="43.60216" lon="7.03351">
        <ele>230.4</ele>
        <time>2014-10-26T15:22:17Z</time>
      </trkpt>
      <trkpt lat="43.6023" lon="7.03333">
        <ele>230.2</ele>
        <time>2014-10-26T15:22:22Z</time>
      </trkpt>
      <trkpt lat="43.60241" lon="7.03317">
        <ele>229.5</ele>
        <time>2014-10-26T15:22:28Z</time>
      </trkpt>
      <trkpt lat="43.6025" lon="7.03309">
        <ele>230</ele>
        <time>2014-10-26T15:22:34Z</time>
      </trkpt>
      <trkpt lat="43.60259" lon="7.033">
        <ele>229.9</ele>
        <time>2014-10-26T15:22:39Z</time>
      </trkpt>
      <trkpt lat="43.60267" lon="7.03273">
        <ele>231.7</ele>
        <time>2014-10-26T15:22:52Z</time>
      </trkpt>
      <trkpt lat="43.60254" lon="7.03264">
        <ele>233.7</ele>
        <time>2014-10-26T15:22:57Z</time>
      </trkpt>
      <trkpt lat="43.60241" lon="7.03265">
        <ele>235.6</ele>
        <time>2014-10-26T15:23:02Z</time>
      </trkpt>
      <trkpt lat="43.60226" lon="7.03255">
        <ele>235.7</ele>
        <time>2014-10-26T15:23:07Z</time>
      </trkpt>
      <trkpt lat="43.60206" lon="7.03233">
        <ele>236.2</ele>
        <time>2014-10-26T15:23:12Z</time>
      </trkpt>
      <trkpt lat="43.60188" lon="7.03214">
        <ele>236</ele>
        <time>2014-10-26T15:23:18Z</time>
      </trkpt>
      <trkpt lat="43.60183" lon="7.0319">
        <ele>236.3</ele>
        <time>2014-10-26T15:23:24Z</time>
      </trkpt>
      <trkpt lat="43.60182" lon="7.03174">
        <ele>235.3</ele>
        <time>2014-10-26T15:23:29Z</time>
      </trkpt>
      <trkpt lat="43.60184" lon="7.03153">
        <ele>235.1</ele>
        <time>2014-10-26T15:23:35Z</time>
      </trkpt>
      <trkpt lat="43.6019" lon="7.03137">
        <ele>235.9</ele>
        <time>2014-10-26T15:23:41Z</time>
      </trkpt>
      <trkpt lat="43.60193" lon="7.03122">
        <ele>236.2</ele>
        <time>2014-10-26T15:23:47Z</time>
      </trkpt>
      <trkpt lat="43.60193" lon="7.03105">
        <ele>236.8</ele>
        <time>2014-10-26T15:23:52Z</time>
      </trkpt>
      <trkpt lat="43.60194" lon="7.03095">
        <ele>236.2</ele>
        <time>2014-10-26T15:24:32Z</time>
      </trkpt>
      <trkpt lat="43.6019" lon="7.03078">
        <ele>236.6</ele>
        <time>2014-10-26T15:24:37Z</time>
      </trkpt>
      <trkpt lat="43.60179" lon="7.03055">
        <ele>235.3</ele>
        <time>2014-10-26T15:24:42Z</time>
      </trkpt>
      <trkpt lat="43.60173" lon="7.03031">
        <ele>235.9</ele>
        <time>2014-10-26T15:24:47Z</time>
      </trkpt>
      <trkpt lat="43.60182" lon="7.03008">
        <ele>235.2</ele>
        <time>2014-10-26T15:24:52Z</time>
      </trkpt>
      <trkpt lat="43.60195" lon="7.02984">
        <ele>234.9</ele>
        <time>2014-10-26T15:24:57Z</time>
      </trkpt>
      <trkpt lat="43.60208" lon="7.02964">
        <ele>234.3</ele>
        <time>2014-10-26T15:25:02Z</time>
      </trkpt>
      <trkpt lat="43.60228" lon="7.0295">
        <ele>234.5</ele>
        <time>2014-10-26T15:25:08Z</time>
      </trkpt>
      <trkpt lat="43.60242" lon="7.0294">
        <ele>237.3</ele>
        <time>2014-10-26T15:25:14Z</time>
      </trkpt>
      <trkpt lat="43.6026" lon="7.02939">
        <ele>239.3</ele>
        <time>2014-10-26T15:25:19Z</time>
      </trkpt>
      <trkpt lat="43.60279" lon="7.02939">
        <ele>240.1</ele>
        <time>2014-10-26T15:25:24Z</time>
      </trkpt>
      <trkpt lat="43.60304" lon="7.02934">
        <ele>241.8</ele>
        <time>2014-10-26T15:25:29Z</time>
      </trkpt>
      <trkpt lat="43.60335" lon="7.02925">
        <ele>243.7</ele>
        <time>2014-10-26T15:25:34Z</time>
      </trkpt>
      <trkpt lat="43.60363" lon="7.02927">
        <ele>247.4</ele>
        <time>2014-10-26T15:25:39Z</time>
      </trkpt>
      <trkpt lat="43.60377" lon="7.02947">
        <ele>249.2</ele>
        <time>2014-10-26T15:25:44Z</time>
      </trkpt>
      <trkpt lat="43.60404" lon="7.02992">
        <ele>248.1</ele>
        <time>2014-10-26T15:25:49Z</time>
      </trkpt>
      <trkpt lat="43.60422" lon="7.03032">
        <ele>248.2</ele>
        <time>2014-10-26T15:25:54Z</time>
      </trkpt>
      <trkpt lat="43.60445" lon="7.03035">
        <ele>248</ele>
        <time>2014-10-26T15:26:00Z</time>
      </trkpt>
      <trkpt lat="43.60476" lon="7.03022">
        <ele>247.5</ele>
        <time>2014-10-26T15:26:06Z</time>
      </trkpt>
      <trkpt lat="43.60509" lon="7.03025">
        <ele>247.6</ele>
        <time>2014-10-26T15:26:12Z</time>
      </trkpt>
      <trkpt lat="43.6054" lon="7.0304">
        <ele>247.3</ele>
        <time>2014-10-26T15:26:18Z</time>
      </trkpt>
      <trkpt lat="43.60589" lon="7.03075">
        <ele>243.1</ele>
        <time>2014-10-26T15:26:24Z</time>
      </trkpt>
      <trkpt lat="43.60633" lon="7.03116">
        <ele>240.7</ele>
        <time>2014-10-26T15:26:30Z</time>
      </trkpt>
      <trkpt lat="43.60645" lon="7.03133">
        <ele>239.8</ele>
        <time>2014-10-26T15:26:36Z</time>
      </trkpt>
      <trkpt lat="43.60658" lon="7.03149">
        <ele>239.5</ele>
        <time>2014-10-26T15:26:41Z</time>
      </trkpt>
      <trkpt lat="43.6067" lon="7.03185">
        <ele>238.6</ele>
        <time>2014-10-26T15:26:46Z</time>
      </trkpt>
      <trkpt lat="43.60688" lon="7.03226">
        <ele>237.1</ele>
        <time>2014-10-26T15:26:51Z</time>
      </trkpt>
      <trkpt lat="43.60712" lon="7.03258">
        <ele>236.7</ele>
        <time>2014-10-26T15:26:56Z</time>
      </trkpt>
      <trkpt lat="43.60716" lon="7.03295">
        <ele>233.5</ele>
        <time>2014-10-26T15:27:01Z</time>
      </trkpt>
      <trkpt lat="43.60716" lon="7.03303">
        <ele>232.3</ele>
        <time>2014-10-26T15:27:07Z</time>
      </trkpt>
      <trkpt lat="43.60735" lon="7.03317">
        <ele>231.2</ele>
        <time>2014-10-26T15:27:12Z</time>
      </trkpt>
      <trkpt lat="43.60761" lon="7.03343">
        <ele>229</ele>
        <time>2014-10-26T15:27:17Z</time>
      </trkpt>
      <trkpt lat="43.60762" lon="7.03386">
        <ele>222.7</ele>
        <time>2014-10-26T15:27:22Z</time>
      </trkpt>
      <trkpt lat="43.60738" lon="7.03414">
        <ele>216.9</ele>
        <time>2014-10-26T15:28:05Z</time>
      </trkpt>
      <trkpt lat="43.6074" lon="7.0342">
        <ele>221.3</ele>
        <time>2014-10-26T15:28:30Z</time>
      </trkpt>
      <trkpt lat="43.60726" lon="7.03452">
        <ele>220.2</ele>
        <time>2014-10-26T15:28:36Z</time>
      </trkpt>
      <trkpt lat="43.60712" lon="7.03488">
        <ele>219.5</ele>
        <time>2014-10-26T15:28:42Z</time>
      </trkpt>
      <trkpt lat="43.60709" lon="7.03506">
        <ele>219.4</ele>
        <time>2014-10-26T15:28:48Z</time>
      </trkpt>
      <trkpt lat="43.60717" lon="7.03512">
        <ele>219.7</ele>
        <time>2014-10-26T15:28:54Z</time>
      </trkpt>
      <trkpt lat="43.60727" lon="7.03517">
        <ele>220.9</ele>
        <time>2014-10-26T15:29:00Z</time>
      </trkpt>
      <trkpt lat="43.60742" lon="7.03528">
        <ele>221</ele>
        <time>2014-10-26T15:29:06Z</time>
      </trkpt>
      <trkpt lat="43.60754" lon="7.03554">
        <ele>218.8</ele>
        <time>2014-10-26T15:29:12Z</time>
      </trkpt>
      <trkpt lat="43.6076" lon="7.03581">
        <ele>217.2</ele>
        <time>2014-10-26T15:29:17Z</time>
      </trkpt>
      <trkpt lat="43.60768" lon="7.036">
        <ele>216.8</ele>
        <time>2014-10-26T15:29:22Z</time>
      </trkpt>
      <trkpt lat="43.6078" lon="7.03624">
        <ele>216.6</ele>
        <time>2014-10-26T15:29:27Z</time>
      </trkpt>
      <trkpt lat="43.608" lon="7.03649">
        <ele>215.1</ele>
        <time>2014-10-26T15:29:32Z</time>
      </trkpt>
      <trkpt lat="43.60818" lon="7.03684">
        <ele>214.4</ele>
        <time>2014-10-26T15:29:37Z</time>
      </trkpt>
      <trkpt lat="43.60829" lon="7.03694">
        <ele>214.9</ele>
        <time>2014-10-26T15:29:42Z</time>
      </trkpt>
      <trkpt lat="43.60848" lon="7.037">
        <ele>215.1</ele>
        <time>2014-10-26T15:29:47Z</time>
      </trkpt>
      <trkpt lat="43.60867" lon="7.03714">
        <ele>216</ele>
        <time>2014-10-26T15:29:52Z</time>
      </trkpt>
      <trkpt lat="43.60891" lon="7.03727">
        <ele>216</ele>
        <time>2014-10-26T15:29:57Z</time>
      </trkpt>
      <trkpt lat="43.60918" lon="7.03732">
        <ele>216.3</ele>
        <time>2014-10-26T15:30:02Z</time>
      </trkpt>
      <trkpt lat="43.60946" lon="7.03748">
        <ele>216.3</ele>
        <time>2014-10-26T15:30:07Z</time>
      </trkpt>
      <trkpt lat="43.60968" lon="7.03774">
        <ele>214.7</ele>
        <time>2014-10-26T15:30:12Z</time>
      </trkpt>
      <trkpt lat="43.6098" lon="7.0381">
        <ele>213.4</ele>
        <time>2014-10-26T15:30:18Z</time>
      </trkpt>
      <trkpt lat="43.6098" lon="7.03825">
        <ele>213</ele>
        <time>2014-10-26T15:30:23Z</time>
      </trkpt>
      <trkpt lat="43.60975" lon="7.03832">
        <ele>213.2</ele>
        <time>2014-10-26T15:30:28Z</time>
      </trkpt>
      <trkpt lat="43.60978" lon="7.03849">
        <ele>213.9</ele>
        <time>2014-10-26T15:30:34Z</time>
      </trkpt>
      <trkpt lat="43.60984" lon="7.03871">
        <ele>214.6</ele>
        <time>2014-10-26T15:30:39Z</time>
      </trkpt>
      <trkpt lat="43.60989" lon="7.03893">
        <ele>215.5</ele>
        <time>2014-10-26T15:30:45Z</time>
      </trkpt>
      <trkpt lat="43.60992" lon="7.03911">
        <ele>216</ele>
        <time>2014-10-26T15:30:50Z</time>
      </trkpt>
      <trkpt lat="43.60995" lon="7.03936">
        <ele>218.3</ele>
        <time>2014-10-26T15:30:56Z</time>
      </trkpt>
      <trkpt lat="43.60998" lon="7.03955">
        <ele>218.2</ele>
        <time>2014-10-26T15:31:02Z</time>
      </trkpt>
      <trkpt lat="43.61" lon="7.03973">
        <ele>217.7</ele>
        <time>2014-10-26T15:31:07Z</time>
      </trkpt>
      <trkpt lat="43.61008" lon="7.03992">
        <ele>218.3</ele>
        <time>2014-10-26T15:31:12Z</time>
      </trkpt>
      <trkpt lat="43.6102" lon="7.04014">
        <ele>218.4</ele>
        <time>2014-10-26T15:31:17Z</time>
      </trkpt>
      <trkpt lat="43.61028" lon="7.04039">
        <ele>218.6</ele>
        <time>2014-10-26T15:31:22Z</time>
      </trkpt>
      <trkpt lat="43.61033" lon="7.04055">
        <ele>219.6</ele>
        <time>2014-10-26T15:31:27Z</time>
      </trkpt>
      <trkpt lat="43.61039" lon="7.04065">
        <ele>219.3</ele>
        <time>2014-10-26T15:31:32Z</time>
      </trkpt>
      <trkpt lat="43.61046" lon="7.04076">
        <ele>219.2</ele>
        <time>2014-10-26T15:31:37Z</time>
      </trkpt>
      <trkpt lat="43.6105" lon="7.04089">
        <ele>227.4</ele>
        <time>2014-10-26T15:32:32Z</time>
      </trkpt>
      <trkpt lat="43.61061" lon="7.04073">
        <ele>227.8</ele>
        <time>2014-10-26T15:32:37Z</time>
      </trkpt>
      <trkpt lat="43.61076" lon="7.0405">
        <ele>227.7</ele>
        <time>2014-10-26T15:32:42Z</time>
      </trkpt>
      <trkpt lat="43.61095" lon="7.04027">
        <ele>225.1</ele>
        <time>2014-10-26T15:32:47Z</time>
      </trkpt>
      <trkpt lat="43.61106" lon="7.04001">
        <ele>220.7</ele>
        <time>2014-10-26T15:32:53Z</time>
      </trkpt>
      <trkpt lat="43.61115" lon="7.03982">
        <ele>216</ele>
        <time>2014-10-26T15:32:58Z</time>
      </trkpt>
      <trkpt lat="43.61129" lon="7.03962">
        <ele>207.3</ele>
        <time>2014-10-26T15:33:03Z</time>
      </trkpt>
      <trkpt lat="43.61143" lon="7.03941">
        <ele>206.6</ele>
        <time>2014-10-26T15:33:08Z</time>
      </trkpt>
      <trkpt lat="43.61163" lon="7.03905">
        <ele>202.9</ele>
        <time>2014-10-26T15:33:13Z</time>
      </trkpt>
      <trkpt lat="43.61179" lon="7.03896">
        <ele>201.7</ele>
        <time>2014-10-26T15:33:19Z</time>
      </trkpt>
      <trkpt lat="43.61194" lon="7.03904">
        <ele>199.2</ele>
        <time>2014-10-26T15:33:25Z</time>
      </trkpt>
      <trkpt lat="43.61204" lon="7.03907">
        <ele>198.8</ele>
        <time>2014-10-26T15:33:31Z</time>
      </trkpt>
      <trkpt lat="43.61215" lon="7.03898">
        <ele>197.9</ele>
        <time>2014-10-26T15:33:38Z</time>
      </trkpt>
      <trkpt lat="43.61228" lon="7.03902">
        <ele>195.7</ele>
        <time>2014-10-26T15:33:44Z</time>
      </trkpt>
      <trkpt lat="43.6124" lon="7.0392">
        <ele>194.3</ele>
        <time>2014-10-26T15:33:49Z</time>
      </trkpt>
      <trkpt lat="43.6125" lon="7.03927">
        <ele>192.8</ele>
        <time>2014-10-26T15:33:55Z</time>
      </trkpt>
      <trkpt lat="43.61265" lon="7.03908">
        <ele>191.7</ele>
        <time>2014-10-26T15:34:00Z</time>
      </trkpt>
      <trkpt lat="43.61275" lon="7.03902">
        <ele>191.1</ele>
        <time>2014-10-26T15:34:05Z</time>
      </trkpt>
      <trkpt lat="43.61294" lon="7.03923">
        <ele>188.7</ele>
        <time>2014-10-26T15:34:10Z</time>
      </trkpt>
      <trkpt lat="43.61315" lon="7.03949">
        <ele>186.2</ele>
        <time>2014-10-26T15:34:15Z</time>
      </trkpt>
      <trkpt lat="43.61332" lon="7.03974">
        <ele>185.9</ele>
        <time>2014-10-26T15:34:21Z</time>
      </trkpt>
      <trkpt lat="43.61353" lon="7.03995">
        <ele>185.2</ele>
        <time>2014-10-26T15:34:26Z</time>
      </trkpt>
      <trkpt lat="43.6138" lon="7.04014">
        <ele>184.9</ele>
        <time>2014-10-26T15:34:32Z</time>
      </trkpt>
      <trkpt lat="43.61394" lon="7.04038">
        <ele>184.5</ele>
        <time>2014-10-26T15:34:37Z</time>
      </trkpt>
      <trkpt lat="43.61401" lon="7.04054">
        <ele>183.5</ele>
        <time>2014-10-26T15:34:43Z</time>
      </trkpt>
      <trkpt lat="43.61407" lon="7.04069">
        <ele>184.1</ele>
        <time>2014-10-26T15:34:48Z</time>
      </trkpt>
      <trkpt lat="43.61411" lon="7.04091">
        <ele>184.5</ele>
        <time>2014-10-26T15:34:53Z</time>
      </trkpt>
      <trkpt lat="43.61412" lon="7.04113">
        <ele>184.4</ele>
        <time>2014-10-26T15:34:59Z</time>
      </trkpt>
      <trkpt lat="43.61414" lon="7.04129">
        <ele>184.7</ele>
        <time>2014-10-26T15:35:05Z</time>
      </trkpt>
      <trkpt lat="43.61421" lon="7.04152">
        <ele>184.7</ele>
        <time>2014-10-26T15:35:10Z</time>
      </trkpt>
      <trkpt lat="43.61424" lon="7.04176">
        <ele>185.2</ele>
        <time>2014-10-26T15:35:15Z</time>
      </trkpt>
      <trkpt lat="43.61424" lon="7.042">
        <ele>183.6</ele>
        <time>2014-10-26T15:35:20Z</time>
      </trkpt>
      <trkpt lat="43.61425" lon="7.04222">
        <ele>182.8</ele>
        <time>2014-10-26T15:35:25Z</time>
      </trkpt>
      <trkpt lat="43.61426" lon="7.04242">
        <ele>183.4</ele>
        <time>2014-10-26T15:35:30Z</time>
      </trkpt>
      <trkpt lat="43.61434" lon="7.04268">
        <ele>183.8</ele>
        <time>2014-10-26T15:35:36Z</time>
      </trkpt>
      <trkpt lat="43.61446" lon="7.04263">
        <ele>183.9</ele>
        <time>2014-10-26T15:35:41Z</time>
      </trkpt>
      <trkpt lat="43.61458" lon="7.04248">
        <ele>182.6</ele>
        <time>2014-10-26T15:35:46Z</time>
      </trkpt>
      <trkpt lat="43.61469" lon="7.04234">
        <ele>182</ele>
        <time>2014-10-26T15:35:51Z</time>
      </trkpt>
      <trkpt lat="43.6148" lon="7.04219">
        <ele>180.5</ele>
        <time>2014-10-26T15:35:56Z</time>
      </trkpt>
      <trkpt lat="43.61491" lon="7.042">
        <ele>179.7</ele>
        <time>2014-10-26T15:36:01Z</time>
      </trkpt>
      <trkpt lat="43.61504" lon="7.04178">
        <ele>177.5</ele>
        <time>2014-10-26T15:36:06Z</time>
      </trkpt>
      <trkpt lat="43.61517" lon="7.04166">
        <ele>175.7</ele>
        <time>2014-10-26T15:36:11Z</time>
      </trkpt>
      <trkpt lat="43.61525" lon="7.04167">
        <ele>175.7</ele>
        <time>2014-10-26T15:36:18Z</time>
      </trkpt>
      <trkpt lat="43.61532" lon="7.04175">
        <ele>173.9</ele>
        <time>2014-10-26T15:36:25Z</time>
      </trkpt>
      <trkpt lat="43.61542" lon="7.0417">
        <ele>175.1</ele>
        <time>2014-10-26T15:36:35Z</time>
      </trkpt>
      <trkpt lat="43.61555" lon="7.04161">
        <ele>175.2</ele>
        <time>2014-10-26T15:36:41Z</time>
      </trkpt>
      <trkpt lat="43.61563" lon="7.04148">
        <ele>175.7</ele>
        <time>2014-10-26T15:36:46Z</time>
      </trkpt>
      <trkpt lat="43.61578" lon="7.04138">
        <ele>175.2</ele>
        <time>2014-10-26T15:36:51Z</time>
      </trkpt>
      <trkpt lat="43.61598" lon="7.04138">
        <ele>174.8</ele>
        <time>2014-10-26T15:36:56Z</time>
      </trkpt>
      <trkpt lat="43.61618" lon="7.04145">
        <ele>175.7</ele>
        <time>2014-10-26T15:37:01Z</time>
      </trkpt>
      <trkpt lat="43.61637" lon="7.04175">
        <ele>173.7</ele>
        <time>2014-10-26T15:37:06Z</time>
      </trkpt>
      <trkpt lat="43.61642" lon="7.0421">
        <ele>174.6</ele>
        <time>2014-10-26T15:37:12Z</time>
      </trkpt>
      <trkpt lat="43.61651" lon="7.04241">
        <ele>174.1</ele>
        <time>2014-10-26T15:37:18Z</time>
      </trkpt>
      <trkpt lat="43.61662" lon="7.04271">
        <ele>173</ele>
        <time>2014-10-26T15:37:24Z</time>
      </trkpt>
      <trkpt lat="43.61672" lon="7.04293">
        <ele>173.2</ele>
        <time>2014-10-26T15:37:29Z</time>
      </trkpt>
      <trkpt lat="43.61677" lon="7.04311">
        <ele>173.4</ele>
        <time>2014-10-26T15:37:35Z</time>
      </trkpt>
      <trkpt lat="43.61658" lon="7.04304">
        <ele>173.2</ele>
        <time>2014-10-26T15:37:40Z</time>
      </trkpt>
      <trkpt lat="43.61647" lon="7.04278">
        <ele>171.5</ele>
        <time>2014-10-26T15:37:45Z</time>
      </trkpt>
      <trkpt lat="43.61636" lon="7.04254">
        <ele>172</ele>
        <time>2014-10-26T15:37:50Z</time>
      </trkpt>
      <trkpt lat="43.61634" lon="7.04223">
        <ele>171</ele>
        <time>2014-10-26T15:37:55Z</time>
      </trkpt>
      <trkpt lat="43.61629" lon="7.04194">
        <ele>170.6</ele>
        <time>2014-10-26T15:38:00Z</time>
      </trkpt>
      <trkpt lat="43.61618" lon="7.04163">
        <ele>170.4</ele>
        <time>2014-10-26T15:38:06Z</time>
      </trkpt>
      <trkpt lat="43.61602" lon="7.0415">
        <ele>171.7</ele>
        <time>2014-10-26T15:38:12Z</time>
      </trkpt>
      <trkpt lat="43.61583" lon="7.04148">
        <ele>172.2</ele>
        <time>2014-10-26T15:38:17Z</time>
      </trkpt>
      <trkpt lat="43.61571" lon="7.04156">
        <ele>172.8</ele>
        <time>2014-10-26T15:38:22Z</time>
      </trkpt>
      <trkpt lat="43.61562" lon="7.04187">
        <ele>173.2</ele>
        <time>2014-10-26T15:38:27Z</time>
      </trkpt>
      <trkpt lat="43.61549" lon="7.04216">
        <ele>173.8</ele>
        <time>2014-10-26T15:38:32Z</time>
      </trkpt>
      <trkpt lat="43.61531" lon="7.04251">
        <ele>174.3</ele>
        <time>2014-10-26T15:38:38Z</time>
      </trkpt>
      <trkpt lat="43.6152" lon="7.04275">
        <ele>174</ele>
        <time>2014-10-26T15:38:43Z</time>
      </trkpt>
      <trkpt lat="43.61509" lon="7.04292">
        <ele>175.4</ele>
        <time>2014-10-26T15:38:48Z</time>
      </trkpt>
      <trkpt lat="43.61492" lon="7.04313">
        <ele>177.2</ele>
        <time>2014-10-26T15:38:54Z</time>
      </trkpt>
      <trkpt lat="43.61484" lon="7.04325">
        <ele>177.6</ele>
        <time>2014-10-26T15:38:59Z</time>
      </trkpt>
      <trkpt lat="43.61477" lon="7.04338">
        <ele>178</ele>
        <time>2014-10-26T15:39:04Z</time>
      </trkpt>
      <trkpt lat="43.61466" lon="7.04352">
        <ele>179.8</ele>
        <time>2014-10-26T15:39:10Z</time>
      </trkpt>
      <trkpt lat="43.61456" lon="7.04364">
        <ele>181.5</ele>
        <time>2014-10-26T15:39:16Z</time>
      </trkpt>
      <trkpt lat="43.61449" lon="7.04376">
        <ele>183.9</ele>
        <time>2014-10-26T15:39:22Z</time>
      </trkpt>
      <trkpt lat="43.61444" lon="7.04389">
        <ele>184.8</ele>
        <time>2014-10-26T15:39:28Z</time>
      </trkpt>
      <trkpt lat="43.6144" lon="7.04405">
        <ele>186.5</ele>
        <time>2014-10-26T15:39:34Z</time>
      </trkpt>
      <trkpt lat="43.61437" lon="7.04423">
        <ele>187.5</ele>
        <time>2014-10-26T15:39:40Z</time>
      </trkpt>
      <trkpt lat="43.61432" lon="7.0444">
        <ele>188.7</ele>
        <time>2014-10-26T15:39:45Z</time>
      </trkpt>
      <trkpt lat="43.61418" lon="7.04463">
        <ele>189.9</ele>
        <time>2014-10-26T15:39:50Z</time>
      </trkpt>
      <trkpt lat="43.61411" lon="7.04481">
        <ele>189.7</ele>
        <time>2014-10-26T15:39:56Z</time>
      </trkpt>
      <trkpt lat="43.61417" lon="7.04495">
        <ele>190.7</ele>
        <time>2014-10-26T15:40:02Z</time>
      </trkpt>
      <trkpt lat="43.61412" lon="7.04499">
        <ele>193.6</ele>
        <time>2014-10-26T15:40:10Z</time>
      </trkpt>
      <trkpt lat="43.61413" lon="7.04486">
        <ele>194.7</ele>
        <time>2014-10-26T15:40:17Z</time>
      </trkpt>
      <trkpt lat="43.61414" lon="7.04478">
        <ele>195.3</ele>
        <time>2014-10-26T15:40:21Z</time>
      </trkpt>
      <trkpt lat="43.61421" lon="7.04462">
        <ele>195.9</ele>
        <time>2014-10-26T15:40:26Z</time>
      </trkpt>
      <trkpt lat="43.6143" lon="7.04455">
        <ele>197.4</ele>
        <time>2014-10-26T15:40:31Z</time>
      </trkpt>
      <trkpt lat="43.61458" lon="7.04446">
        <ele>203.7</ele>
        <time>2014-10-26T15:40:50Z</time>
      </trkpt>
      <trkpt lat="43.61473" lon="7.04437">
        <ele>203.5</ele>
        <time>2014-10-26T15:40:56Z</time>
      </trkpt>
      <trkpt lat="43.61491" lon="7.04429">
        <ele>204.4</ele>
        <time>2014-10-26T15:41:01Z</time>
      </trkpt>
      <trkpt lat="43.6151" lon="7.04421">
        <ele>206</ele>
        <time>2014-10-26T15:41:06Z</time>
      </trkpt>
      <trkpt lat="43.61537" lon="7.04416">
        <ele>207</ele>
        <time>2014-10-26T15:41:12Z</time>
      </trkpt>
      <trkpt lat="43.61578" lon="7.04427">
        <ele>210.1</ele>
        <time>2014-10-26T15:41:18Z</time>
      </trkpt>
      <trkpt lat="43.61606" lon="7.04463">
        <ele>209.1</ele>
        <time>2014-10-26T15:41:23Z</time>
      </trkpt>
      <trkpt lat="43.61626" lon="7.04497">
        <ele>208.4</ele>
        <time>2014-10-26T15:41:28Z</time>
      </trkpt>
      <trkpt lat="43.61648" lon="7.04534">
        <ele>206.4</ele>
        <time>2014-10-26T15:41:33Z</time>
      </trkpt>
      <trkpt lat="43.61667" lon="7.04564">
        <ele>206.3</ele>
        <time>2014-10-26T15:41:38Z</time>
      </trkpt>
      <trkpt lat="43.61688" lon="7.04609">
        <ele>205.7</ele>
        <time>2014-10-26T15:41:43Z</time>
      </trkpt>
      <trkpt lat="43.61703" lon="7.04648">
        <ele>204.5</ele>
        <time>2014-10-26T15:41:48Z</time>
      </trkpt>
      <trkpt lat="43.61714" lon="7.04684">
        <ele>200.6</ele>
        <time>2014-10-26T15:41:53Z</time>
      </trkpt>
      <trkpt lat="43.61727" lon="7.04712">
        <ele>200.7</ele>
        <time>2014-10-26T15:41:58Z</time>
      </trkpt>
      <trkpt lat="43.61735" lon="7.04739">
        <ele>198.3</ele>
        <time>2014-10-26T15:42:03Z</time>
      </trkpt>
      <trkpt lat="43.61742" lon="7.04771">
        <ele>196.4</ele>
        <time>2014-10-26T15:42:08Z</time>
      </trkpt>
      <trkpt lat="43.61751" lon="7.04807">
        <ele>194.2</ele>
        <time>2014-10-26T15:42:13Z</time>
      </trkpt>
      <trkpt lat="43.61753" lon="7.04814">
        <ele>194.3</ele>
        <time>2014-10-26T15:42:18Z</time>
      </trkpt>
      <trkpt lat="43.61774" lon="7.0481">
        <ele>192.9</ele>
        <time>2014-10-26T15:42:24Z</time>
      </trkpt>
      <trkpt lat="43.61786" lon="7.04812">
        <ele>192.4</ele>
        <time>2014-10-26T15:42:29Z</time>
      </trkpt>
      <trkpt lat="43.61799" lon="7.0481">
        <ele>190.3</ele>
        <time>2014-10-26T15:42:38Z</time>
      </trkpt>
      <trkpt lat="43.61813" lon="7.04825">
        <ele>188.6</ele>
        <time>2014-10-26T15:42:43Z</time>
      </trkpt>
      <trkpt lat="43.61825" lon="7.04852">
        <ele>185.1</ele>
        <time>2014-10-26T15:42:48Z</time>
      </trkpt>
      <trkpt lat="43.61834" lon="7.0488">
        <ele>181.5</ele>
        <time>2014-10-26T15:42:54Z</time>
      </trkpt>
      <trkpt lat="43.61839" lon="7.04898">
        <ele>179.8</ele>
        <time>2014-10-26T15:43:00Z</time>
      </trkpt>
      <trkpt lat="43.61845" lon="7.0492">
        <ele>178.5</ele>
        <time>2014-10-26T15:43:06Z</time>
      </trkpt>
      <trkpt lat="43.61853" lon="7.04931">
        <ele>179.6</ele>
        <time>2014-10-26T15:43:12Z</time>
      </trkpt>
      <trkpt lat="43.61869" lon="7.04941">
        <ele>181.1</ele>
        <time>2014-10-26T15:43:17Z</time>
      </trkpt>
      <trkpt lat="43.61886" lon="7.04945">
        <ele>181.3</ele>
        <time>2014-10-26T15:43:22Z</time>
      </trkpt>
      <trkpt lat="43.61908" lon="7.04943">
        <ele>181.1</ele>
        <time>2014-10-26T15:43:27Z</time>
      </trkpt>
      <trkpt lat="43.61932" lon="7.04939">
        <ele>180.8</ele>
        <time>2014-10-26T15:43:32Z</time>
      </trkpt>
      <trkpt lat="43.61952" lon="7.04943">
        <ele>180.6</ele>
        <time>2014-10-26T15:43:38Z</time>
      </trkpt>
      <trkpt lat="43.61964" lon="7.04943">
        <ele>179.9</ele>
        <time>2014-10-26T15:43:43Z</time>
      </trkpt>
      <trkpt lat="43.61988" lon="7.04952">
        <ele>178.6</ele>
        <time>2014-10-26T15:43:48Z</time>
      </trkpt>
      <trkpt lat="43.62016" lon="7.0497">
        <ele>176.1</ele>
        <time>2014-10-26T15:43:54Z</time>
      </trkpt>
      <trkpt lat="43.62034" lon="7.04991">
        <ele>174.4</ele>
        <time>2014-10-26T15:44:00Z</time>
      </trkpt>
      <trkpt lat="43.62052" lon="7.04986">
        <ele>172.8</ele>
        <time>2014-10-26T15:44:06Z</time>
      </trkpt>
      <trkpt lat="43.62072" lon="7.04969">
        <ele>171.5</ele>
        <time>2014-10-26T15:44:12Z</time>
      </trkpt>
      <trkpt lat="43.62087" lon="7.04956">
        <ele>168.9</ele>
        <time>2014-10-26T15:44:17Z</time>
      </trkpt>
      <trkpt lat="43.62085" lon="7.04936">
        <ele>169.9</ele>
        <time>2014-10-26T15:44:23Z</time>
      </trkpt>
      <trkpt lat="43.62089" lon="7.04926">
        <ele>170.9</ele>
        <time>2014-10-26T15:44:29Z</time>
      </trkpt>
      <trkpt lat="43.62101" lon="7.04937">
        <ele>170.2</ele>
        <time>2014-10-26T15:44:35Z</time>
      </trkpt>
      <trkpt lat="43.62113" lon="7.0495">
        <ele>170</ele>
        <time>2014-10-26T15:44:41Z</time>
      </trkpt>
      <trkpt lat="43.62121" lon="7.04952">
        <ele>170.2</ele>
        <time>2014-10-26T15:44:49Z</time>
      </trkpt>
      <trkpt lat="43.62121" lon="7.04942">
        <ele>170.6</ele>
        <time>2014-10-26T15:44:54Z</time>
      </trkpt>
      <trkpt lat="43.62122" lon="7.04934">
        <ele>171.1</ele>
        <time>2014-10-26T15:44:59Z</time>
      </trkpt>
      <trkpt lat="43.62112" lon="7.04915">
        <ele>170.7</ele>
        <time>2014-10-26T15:45:04Z</time>
      </trkpt>
      <trkpt lat="43.62105" lon="7.0489">
        <ele>171.5</ele>
        <time>2014-10-26T15:45:09Z</time>
      </trkpt>
      <trkpt lat="43.62096" lon="7.04869">
        <ele>172.3</ele>
        <time>2014-10-26T15:45:14Z</time>
      </trkpt>
      <trkpt lat="43.62087" lon="7.04848">
        <ele>173.2</ele>
        <time>2014-10-26T15:45:19Z</time>
      </trkpt>
      <trkpt lat="43.62077" lon="7.0483">
        <ele>173.5</ele>
        <time>2014-10-26T15:45:24Z</time>
      </trkpt>
      <trkpt lat="43.6205" lon="7.04818">
        <ele>173.9</ele>
        <time>2014-10-26T15:45:30Z</time>
      </trkpt>
      <trkpt lat="43.62026" lon="7.0481">
        <ele>174.9</ele>
        <time>2014-10-26T15:45:36Z</time>
      </trkpt>
      <trkpt lat="43.62012" lon="7.04814">
        <ele>175.4</ele>
        <time>2014-10-26T15:45:42Z</time>
      </trkpt>
      <trkpt lat="43.61995" lon="7.04812">
        <ele>176.1</ele>
        <time>2014-10-26T15:45:47Z</time>
      </trkpt>
      <trkpt lat="43.61992" lon="7.04811">
        <ele>177.4</ele>
        <time>2014-10-26T15:46:01Z</time>
      </trkpt>
      <trkpt lat="43.61975" lon="7.04821">
        <ele>177.8</ele>
        <time>2014-10-26T15:46:06Z</time>
      </trkpt>
      <trkpt lat="43.61956" lon="7.04811">
        <ele>178.8</ele>
        <time>2014-10-26T15:46:12Z</time>
      </trkpt>
      <trkpt lat="43.61934" lon="7.04803">
        <ele>177.9</ele>
        <time>2014-10-26T15:46:17Z</time>
      </trkpt>
      <trkpt lat="43.61914" lon="7.04788">
        <ele>176.4</ele>
        <time>2014-10-26T15:46:22Z</time>
      </trkpt>
      <trkpt lat="43.61903" lon="7.04763">
        <ele>174.9</ele>
        <time>2014-10-26T15:47:20Z</time>
      </trkpt>
      <trkpt lat="43.61916" lon="7.0476">
        <ele>173.2</ele>
        <time>2014-10-26T15:47:25Z</time>
      </trkpt>
      <trkpt lat="43.6193" lon="7.0476">
        <ele>173.8</ele>
        <time>2014-10-26T15:47:31Z</time>
      </trkpt>
      <trkpt lat="43.61944" lon="7.04758">
        <ele>174.9</ele>
        <time>2014-10-26T15:47:37Z</time>
      </trkpt>
      <trkpt lat="43.61957" lon="7.04754">
        <ele>175.6</ele>
        <time>2014-10-26T15:47:42Z</time>
      </trkpt>
      <trkpt lat="43.61969" lon="7.04751">
        <ele>177.3</ele>
        <time>2014-10-26T15:47:48Z</time>
      </trkpt>
      <trkpt lat="43.61977" lon="7.04747">
        <ele>178.7</ele>
        <time>2014-10-26T15:47:53Z</time>
      </trkpt>
      <trkpt lat="43.61986" lon="7.04738">
        <ele>181.3</ele>
        <time>2014-10-26T15:47:59Z</time>
      </trkpt>
      <trkpt lat="43.61988" lon="7.04736">
        <ele>182.2</ele>
        <time>2014-10-26T15:48:01Z</time>
      </trkpt>
      <trkpt lat="43.61999" lon="7.04732">
        <ele>186.1</ele>
        <time>2014-10-26T15:48:07Z</time>
      </trkpt>
      <trkpt lat="43.62011" lon="7.0473">
        <ele>189.4</ele>
        <time>2014-10-26T15:48:13Z</time>
      </trkpt>
      <trkpt lat="43.62012" lon="7.04723">
        <ele>184.6</ele>
        <time>2014-10-26T15:48:22Z</time>
      </trkpt>
      <trkpt lat="43.62006" lon="7.04714">
        <ele>182.9</ele>
        <time>2014-10-26T15:48:28Z</time>
      </trkpt>
      <trkpt lat="43.62006" lon="7.04695">
        <ele>183.7</ele>
        <time>2014-10-26T15:48:34Z</time>
      </trkpt>
      <trkpt lat="43.62009" lon="7.04677">
        <ele>185.2</ele>
        <time>2014-10-26T15:48:40Z</time>
      </trkpt>
      <trkpt lat="43.62012" lon="7.04663">
        <ele>185.6</ele>
        <time>2014-10-26T15:48:45Z</time>
      </trkpt>
      <trkpt lat="43.62019" lon="7.04646">
        <ele>186.4</ele>
        <time>2014-10-26T15:48:50Z</time>
      </trkpt>
      <trkpt lat="43.62026" lon="7.04628">
        <ele>187.5</ele>
        <time>2014-10-26T15:48:56Z</time>
      </trkpt>
      <trkpt lat="43.62029" lon="7.04609">
        <ele>188.8</ele>
        <time>2014-10-26T15:49:02Z</time>
      </trkpt>
      <trkpt lat="43.62029" lon="7.04592">
        <ele>190.2</ele>
        <time>2014-10-26T15:49:08Z</time>
      </trkpt>
      <trkpt lat="43.6203" lon="7.04575">
        <ele>189.3</ele>
        <time>2014-10-26T15:49:14Z</time>
      </trkpt>
      <trkpt lat="43.62033" lon="7.04556">
        <ele>189.7</ele>
        <time>2014-10-26T15:49:19Z</time>
      </trkpt>
      <trkpt lat="43.62038" lon="7.04538">
        <ele>191</ele>
        <time>2014-10-26T15:49:24Z</time>
      </trkpt>
      <trkpt lat="43.62043" lon="7.04521">
        <ele>192.8</ele>
        <time>2014-10-26T15:49:29Z</time>
      </trkpt>
      <trkpt lat="43.62051" lon="7.04509">
        <ele>194</ele>
        <time>2014-10-26T15:49:35Z</time>
      </trkpt>
      <trkpt lat="43.62061" lon="7.04501">
        <ele>194.4</ele>
        <time>2014-10-26T15:49:41Z</time>
      </trkpt>
      <trkpt lat="43.62073" lon="7.04493">
        <ele>194.6</ele>
        <time>2014-10-26T15:49:47Z</time>
      </trkpt>
      <trkpt lat="43.62083" lon="7.04484">
        <ele>194.8</ele>
        <time>2014-10-26T15:49:53Z</time>
      </trkpt>
      <trkpt lat="43.62093" lon="7.04471">
        <ele>195</ele>
        <time>2014-10-26T15:49:59Z</time>
      </trkpt>
      <trkpt lat="43.62104" lon="7.04462">
        <ele>194.8</ele>
        <time>2014-10-26T15:50:05Z</time>
      </trkpt>
      <trkpt lat="43.62111" lon="7.04461">
        <ele>196.2</ele>
        <time>2014-10-26T15:50:10Z</time>
      </trkpt>
      <trkpt lat="43.62122" lon="7.04461">
        <ele>198.1</ele>
        <time>2014-10-26T15:50:15Z</time>
      </trkpt>
      <trkpt lat="43.62135" lon="7.0446">
        <ele>199.7</ele>
        <time>2014-10-26T15:50:21Z</time>
      </trkpt>
      <trkpt lat="43.6214" lon="7.04461">
        <ele>200.1</ele>
        <time>2014-10-26T15:50:23Z</time>
      </trkpt>
      <trkpt lat="43.62151" lon="7.04457">
        <ele>202</ele>
        <time>2014-10-26T15:50:29Z</time>
      </trkpt>
      <trkpt lat="43.62165" lon="7.04448">
        <ele>203.4</ele>
        <time>2014-10-26T15:50:34Z</time>
      </trkpt>
      <trkpt lat="43.62179" lon="7.04437">
        <ele>204.7</ele>
        <time>2014-10-26T15:50:39Z</time>
      </trkpt>
      <trkpt lat="43.62197" lon="7.04425">
        <ele>206.4</ele>
        <time>2014-10-26T15:50:44Z</time>
      </trkpt>
      <trkpt lat="43.62214" lon="7.04426">
        <ele>205</ele>
        <time>2014-10-26T15:50:49Z</time>
      </trkpt>
      <trkpt lat="43.62226" lon="7.04436">
        <ele>203.4</ele>
        <time>2014-10-26T15:50:54Z</time>
      </trkpt>
      <trkpt lat="43.62238" lon="7.04461">
        <ele>202.5</ele>
        <time>2014-10-26T15:51:00Z</time>
      </trkpt>
      <trkpt lat="43.6225" lon="7.04485">
        <ele>201.5</ele>
        <time>2014-10-26T15:51:06Z</time>
      </trkpt>
      <trkpt lat="43.62255" lon="7.04494">
        <ele>202.7</ele>
        <time>2014-10-26T15:51:11Z</time>
      </trkpt>
      <trkpt lat="43.62273" lon="7.04495">
        <ele>204.1</ele>
        <time>2014-10-26T15:51:16Z</time>
      </trkpt>
      <trkpt lat="43.62299" lon="7.04504">
        <ele>205.2</ele>
        <time>2014-10-26T15:51:21Z</time>
      </trkpt>
      <trkpt lat="43.62323" lon="7.04517">
        <ele>204.4</ele>
        <time>2014-10-26T15:51:26Z</time>
      </trkpt>
      <trkpt lat="43.62339" lon="7.04529">
        <ele>206.1</ele>
        <time>2014-10-26T15:51:31Z</time>
      </trkpt>
      <trkpt lat="43.62355" lon="7.0455">
        <ele>205.9</ele>
        <time>2014-10-26T15:51:36Z</time>
      </trkpt>
      <trkpt lat="43.62372" lon="7.0454">
        <ele>203.9</ele>
        <time>2014-10-26T15:51:42Z</time>
      </trkpt>
      <trkpt lat="43.62374" lon="7.04524">
        <ele>205.2</ele>
        <time>2014-10-26T15:51:49Z</time>
      </trkpt>
      <trkpt lat="43.6237" lon="7.04545">
        <ele>207.9</ele>
        <time>2014-10-26T15:55:21Z</time>
      </trkpt>
      <trkpt lat="43.62356" lon="7.04548">
        <ele>208.4</ele>
        <time>2014-10-26T15:55:27Z</time>
      </trkpt>
      <trkpt lat="43.62342" lon="7.04558">
        <ele>209.1</ele>
        <time>2014-10-26T15:55:32Z</time>
      </trkpt>
      <trkpt lat="43.6232" lon="7.04554">
        <ele>209.6</ele>
        <time>2014-10-26T15:55:38Z</time>
      </trkpt>
      <trkpt lat="43.62301" lon="7.04539">
        <ele>209.8</ele>
        <time>2014-10-26T15:55:43Z</time>
      </trkpt>
      <trkpt lat="43.62284" lon="7.04527">
        <ele>207.4</ele>
        <time>2014-10-26T15:55:48Z</time>
      </trkpt>
      <trkpt lat="43.62266" lon="7.04519">
        <ele>206.7</ele>
        <time>2014-10-26T15:55:54Z</time>
      </trkpt>
      <trkpt lat="43.6225" lon="7.04517">
        <ele>205.3</ele>
        <time>2014-10-26T15:55:59Z</time>
      </trkpt>
      <trkpt lat="43.62248" lon="7.04531">
        <ele>204.7</ele>
        <time>2014-10-26T15:56:04Z</time>
      </trkpt>
      <trkpt lat="43.62251" lon="7.04548">
        <ele>204.6</ele>
        <time>2014-10-26T15:56:10Z</time>
      </trkpt>
      <trkpt lat="43.6225" lon="7.04558">
        <ele>205.4</ele>
        <time>2014-10-26T15:56:15Z</time>
      </trkpt>
      <trkpt lat="43.62236" lon="7.04573">
        <ele>206.8</ele>
        <time>2014-10-26T15:56:20Z</time>
      </trkpt>
      <trkpt lat="43.62224" lon="7.04588">
        <ele>207.6</ele>
        <time>2014-10-26T15:56:25Z</time>
      </trkpt>
      <trkpt lat="43.62215" lon="7.04598">
        <ele>209</ele>
        <time>2014-10-26T15:56:30Z</time>
      </trkpt>
      <trkpt lat="43.62202" lon="7.04606">
        <ele>209.4</ele>
        <time>2014-10-26T15:56:35Z</time>
      </trkpt>
      <trkpt lat="43.62189" lon="7.04603">
        <ele>211.2</ele>
        <time>2014-10-26T15:56:40Z</time>
      </trkpt>
      <trkpt lat="43.62179" lon="7.04599">
        <ele>212.8</ele>
        <time>2014-10-26T15:56:45Z</time>
      </trkpt>
      <trkpt lat="43.62162" lon="7.04596">
        <ele>212.4</ele>
        <time>2014-10-26T15:57:35Z</time>
      </trkpt>
      <trkpt lat="43.62175" lon="7.04591">
        <ele>212.5</ele>
        <time>2014-10-26T15:57:40Z</time>
      </trkpt>
      <trkpt lat="43.62188" lon="7.04589">
        <ele>213.2</ele>
        <time>2014-10-26T15:57:46Z</time>
      </trkpt>
      <trkpt lat="43.62211" lon="7.0458">
        <ele>213.8</ele>
        <time>2014-10-26T15:57:51Z</time>
      </trkpt>
      <trkpt lat="43.62229" lon="7.04562">
        <ele>215.2</ele>
        <time>2014-10-26T15:57:56Z</time>
      </trkpt>
      <trkpt lat="43.62235" lon="7.04547">
        <ele>214.7</ele>
        <time>2014-10-26T15:58:01Z</time>
      </trkpt>
      <trkpt lat="43.62241" lon="7.04533">
        <ele>213.9</ele>
        <time>2014-10-26T15:58:06Z</time>
      </trkpt>
      <trkpt lat="43.62243" lon="7.04515">
        <ele>213.3</ele>
        <time>2014-10-26T15:58:10Z</time>
      </trkpt>
      <trkpt lat="43.62242" lon="7.04507">
        <ele>213.1</ele>
        <time>2014-10-26T15:58:16Z</time>
      </trkpt>
      <trkpt lat="43.62234" lon="7.04493">
        <ele>212.6</ele>
        <time>2014-10-26T15:58:21Z</time>
      </trkpt>
      <trkpt lat="43.62232" lon="7.04473">
        <ele>211.2</ele>
        <time>2014-10-26T15:58:27Z</time>
      </trkpt>
      <trkpt lat="43.62229" lon="7.04456">
        <ele>210.9</ele>
        <time>2014-10-26T15:58:32Z</time>
      </trkpt>
      <trkpt lat="43.62222" lon="7.04443">
        <ele>210.5</ele>
        <time>2014-10-26T15:58:38Z</time>
      </trkpt>
      <trkpt lat="43.62206" lon="7.04441">
        <ele>209</ele>
        <time>2014-10-26T15:58:43Z</time>
      </trkpt>
      <trkpt lat="43.62193" lon="7.04445">
        <ele>207.6</ele>
        <time>2014-10-26T15:58:48Z</time>
      </trkpt>
      <trkpt lat="43.62186" lon="7.04456">
        <ele>208.1</ele>
        <time>2014-10-26T15:58:54Z</time>
      </trkpt>
      <trkpt lat="43.62191" lon="7.04452">
        <ele>206.5</ele>
        <time>2014-10-26T15:58:59Z</time>
      </trkpt>
      <trkpt lat="43.62202" lon="7.04439">
        <ele>205.2</ele>
        <time>2014-10-26T15:59:04Z</time>
      </trkpt>
      <trkpt lat="43.62217" lon="7.04432">
        <ele>205.1</ele>
        <time>2014-10-26T15:59:10Z</time>
      </trkpt>
      <trkpt lat="43.62217" lon="7.04427">
        <ele>204.4</ele>
        <time>2014-10-26T15:59:16Z</time>
      </trkpt>
      <trkpt lat="43.62208" lon="7.0441">
        <ele>203</ele>
        <time>2014-10-26T15:59:22Z</time>
      </trkpt>
      <trkpt lat="43.62198" lon="7.04377">
        <ele>202.2</ele>
        <time>2014-10-26T15:59:27Z</time>
      </trkpt>
      <trkpt lat="43.62187" lon="7.04351">
        <ele>202</ele>
        <time>2014-10-26T15:59:32Z</time>
      </trkpt>
      <trkpt lat="43.62174" lon="7.04322">
        <ele>202.1</ele>
        <time>2014-10-26T15:59:38Z</time>
      </trkpt>
      <trkpt lat="43.6217" lon="7.04304">
        <ele>201.3</ele>
        <time>2014-10-26T15:59:44Z</time>
      </trkpt>
      <trkpt lat="43.62164" lon="7.04297">
        <ele>199.3</ele>
        <time>2014-10-26T15:59:50Z</time>
      </trkpt>
      <trkpt lat="43.62143" lon="7.04308">
        <ele>198.8</ele>
        <time>2014-10-26T15:59:55Z</time>
      </trkpt>
      <trkpt lat="43.62114" lon="7.04327">
        <ele>198.5</ele>
        <time>2014-10-26T16:00:00Z</time>
      </trkpt>
      <trkpt lat="43.6208" lon="7.04325">
        <ele>196.3</ele>
        <time>2014-10-26T16:00:06Z</time>
      </trkpt>
      <trkpt lat="43.62063" lon="7.04327">
        <ele>196.9</ele>
        <time>2014-10-26T16:00:11Z</time>
      </trkpt>
      <trkpt lat="43.62053" lon="7.04322">
        <ele>197.4</ele>
        <time>2014-10-26T16:00:17Z</time>
      </trkpt>
      <trkpt lat="43.62051" lon="7.04306">
        <ele>191.7</ele>
        <time>2014-10-26T16:00:52Z</time>
      </trkpt>
      <trkpt lat="43.62045" lon="7.04326">
        <ele>190.2</ele>
        <time>2014-10-26T16:00:58Z</time>
      </trkpt>
      <trkpt lat="43.62032" lon="7.04337">
        <ele>189.6</ele>
        <time>2014-10-26T16:01:03Z</time>
      </trkpt>
      <trkpt lat="43.62022" lon="7.04349">
        <ele>189.6</ele>
        <time>2014-10-26T16:01:13Z</time>
      </trkpt>
      <trkpt lat="43.62006" lon="7.04366">
        <ele>190.1</ele>
        <time>2014-10-26T16:01:18Z</time>
      </trkpt>
      <trkpt lat="43.61984" lon="7.04376">
        <ele>190.1</ele>
        <time>2014-10-26T16:01:24Z</time>
      </trkpt>
      <trkpt lat="43.61959" lon="7.0441">
        <ele>188.6</ele>
        <time>2014-10-26T16:01:30Z</time>
      </trkpt>
      <trkpt lat="43.61934" lon="7.04445">
        <ele>185.1</ele>
        <time>2014-10-26T16:01:36Z</time>
      </trkpt>
      <trkpt lat="43.61921" lon="7.04469">
        <ele>183.5</ele>
        <time>2014-10-26T16:01:42Z</time>
      </trkpt>
      <trkpt lat="43.6192" lon="7.04498">
        <ele>181.8</ele>
        <time>2014-10-26T16:01:48Z</time>
      </trkpt>
      <trkpt lat="43.6192" lon="7.0453">
        <ele>179.6</ele>
        <time>2014-10-26T16:01:54Z</time>
      </trkpt>
      <trkpt lat="43.61911" lon="7.0457">
        <ele>175.5</ele>
        <time>2014-10-26T16:02:00Z</time>
      </trkpt>
      <trkpt lat="43.61907" lon="7.04606">
        <ele>173.2</ele>
        <time>2014-10-26T16:02:06Z</time>
      </trkpt>
      <trkpt lat="43.61894" lon="7.04609">
        <ele>172.6</ele>
        <time>2014-10-26T16:02:12Z</time>
      </trkpt>
      <trkpt lat="43.61874" lon="7.04588">
        <ele>171</ele>
        <time>2014-10-26T16:02:18Z</time>
      </trkpt>
      <trkpt lat="43.61853" lon="7.04576">
        <ele>170.9</ele>
        <time>2014-10-26T16:02:24Z</time>
      </trkpt>
      <trkpt lat="43.61839" lon="7.04568">
        <ele>171.3</ele>
        <time>2014-10-26T16:02:29Z</time>
      </trkpt>
      <trkpt lat="43.61823" lon="7.04557">
        <ele>172.5</ele>
        <time>2014-10-26T16:02:35Z</time>
      </trkpt>
      <trkpt lat="43.61811" lon="7.04546">
        <ele>173.5</ele>
        <time>2014-10-26T16:02:40Z</time>
      </trkpt>
      <trkpt lat="43.61793" lon="7.04524">
        <ele>172.9</ele>
        <time>2014-10-26T16:02:45Z</time>
      </trkpt>
      <trkpt lat="43.61769" lon="7.04512">
        <ele>173.7</ele>
        <time>2014-10-26T16:02:50Z</time>
      </trkpt>
      <trkpt lat="43.61738" lon="7.04503">
        <ele>175.5</ele>
        <time>2014-10-26T16:02:55Z</time>
      </trkpt>
      <trkpt lat="43.61713" lon="7.0448">
        <ele>174.8</ele>
        <time>2014-10-26T16:03:00Z</time>
      </trkpt>
      <trkpt lat="43.61703" lon="7.04442">
        <ele>173.4</ele>
        <time>2014-10-26T16:03:06Z</time>
      </trkpt>
      <trkpt lat="43.61698" lon="7.04412">
        <ele>171.7</ele>
        <time>2014-10-26T16:03:12Z</time>
      </trkpt>
      <trkpt lat="43.61694" lon="7.04386">
        <ele>171</ele>
        <time>2014-10-26T16:03:18Z</time>
      </trkpt>
      <trkpt lat="43.61678" lon="7.04358">
        <ele>171.3</ele>
        <time>2014-10-26T16:03:24Z</time>
      </trkpt>
      <trkpt lat="43.61664" lon="7.0433">
        <ele>170.9</ele>
        <time>2014-10-26T16:03:30Z</time>
      </trkpt>
      <trkpt lat="43.61651" lon="7.04302">
        <ele>171.4</ele>
        <time>2014-10-26T16:03:36Z</time>
      </trkpt>
      <trkpt lat="43.61642" lon="7.04279">
        <ele>171.6</ele>
        <time>2014-10-26T16:03:41Z</time>
      </trkpt>
      <trkpt lat="43.6164" lon="7.04274">
        <ele>171.4</ele>
        <time>2014-10-26T16:03:42Z</time>
      </trkpt>
      <trkpt lat="43.61634" lon="7.04241">
        <ele>170.8</ele>
        <time>2014-10-26T16:03:48Z</time>
      </trkpt>
      <trkpt lat="43.6163" lon="7.04203">
        <ele>171</ele>
        <time>2014-10-26T16:03:54Z</time>
      </trkpt>
      <trkpt lat="43.61624" lon="7.04168">
        <ele>170.7</ele>
        <time>2014-10-26T16:04:00Z</time>
      </trkpt>
      <trkpt lat="43.61608" lon="7.04149">
        <ele>171</ele>
        <time>2014-10-26T16:04:06Z</time>
      </trkpt>
      <trkpt lat="43.61588" lon="7.04151">
        <ele>172.8</ele>
        <time>2014-10-26T16:04:12Z</time>
      </trkpt>
      <trkpt lat="43.61584" lon="7.04145">
        <ele>173.7</ele>
        <time>2014-10-26T16:04:19Z</time>
      </trkpt>
      <trkpt lat="43.61595" lon="7.04139">
        <ele>174.1</ele>
        <time>2014-10-26T16:04:24Z</time>
      </trkpt>
      <trkpt lat="43.61595" lon="7.04148">
        <ele>175.2</ele>
        <time>2014-10-26T16:04:32Z</time>
      </trkpt>
      <trkpt lat="43.61581" lon="7.0415">
        <ele>176.5</ele>
        <time>2014-10-26T16:04:38Z</time>
      </trkpt>
      <trkpt lat="43.61569" lon="7.04157">
        <ele>177.4</ele>
        <time>2014-10-26T16:04:43Z</time>
      </trkpt>
      <trkpt lat="43.6156" lon="7.04177">
        <ele>176.8</ele>
        <time>2014-10-26T16:04:48Z</time>
      </trkpt>
      <trkpt lat="43.61547" lon="7.04187">
        <ele>177.8</ele>
        <time>2014-10-26T16:04:53Z</time>
      </trkpt>
      <trkpt lat="43.61545" lon="7.04181">
        <ele>177.3</ele>
        <time>2014-10-26T16:04:59Z</time>
      </trkpt>
      <trkpt lat="43.61526" lon="7.04177">
        <ele>175.7</ele>
        <time>2014-10-26T16:05:04Z</time>
      </trkpt>
      <trkpt lat="43.61514" lon="7.04184">
        <ele>176.1</ele>
        <time>2014-10-26T16:05:10Z</time>
      </trkpt>
      <trkpt lat="43.61503" lon="7.04201">
        <ele>175.6</ele>
        <time>2014-10-26T16:05:15Z</time>
      </trkpt>
      <trkpt lat="43.61489" lon="7.04221">
        <ele>176.1</ele>
        <time>2014-10-26T16:05:20Z</time>
      </trkpt>
      <trkpt lat="43.61476" lon="7.04241">
        <ele>175.6</ele>
        <time>2014-10-26T16:05:26Z</time>
      </trkpt>
      <trkpt lat="43.61461" lon="7.04259">
        <ele>172.9</ele>
        <time>2014-10-26T16:05:39Z</time>
      </trkpt>
      <trkpt lat="43.61455" lon="7.04267">
        <ele>173.2</ele>
        <time>2014-10-26T16:05:44Z</time>
      </trkpt>
      <trkpt lat="43.61442" lon="7.04283">
        <ele>173.6</ele>
        <time>2014-10-26T16:05:49Z</time>
      </trkpt>
      <trkpt lat="43.6143" lon="7.04291">
        <ele>175.1</ele>
        <time>2014-10-26T16:05:54Z</time>
      </trkpt>
      <trkpt lat="43.61421" lon="7.04273">
        <ele>175.8</ele>
        <time>2014-10-26T16:05:59Z</time>
      </trkpt>
      <trkpt lat="43.61414" lon="7.04242">
        <ele>181</ele>
        <time>2014-10-26T16:06:16Z</time>
      </trkpt>
      <trkpt lat="43.61415" lon="7.04225">
        <ele>182.2</ele>
        <time>2014-10-26T16:06:22Z</time>
      </trkpt>
      <trkpt lat="43.61414" lon="7.04209">
        <ele>182.8</ele>
        <time>2014-10-26T16:06:28Z</time>
      </trkpt>
      <trkpt lat="43.61415" lon="7.04186">
        <ele>182.3</ele>
        <time>2014-10-26T16:06:33Z</time>
      </trkpt>
      <trkpt lat="43.61412" lon="7.04164">
        <ele>181.4</ele>
        <time>2014-10-26T16:06:38Z</time>
      </trkpt>
      <trkpt lat="43.61404" lon="7.0414">
        <ele>181.9</ele>
        <time>2014-10-26T16:06:44Z</time>
      </trkpt>
      <trkpt lat="43.61403" lon="7.04114">
        <ele>181.3</ele>
        <time>2014-10-26T16:06:49Z</time>
      </trkpt>
      <trkpt lat="43.614" lon="7.04079">
        <ele>181.2</ele>
        <time>2014-10-26T16:06:54Z</time>
      </trkpt>
      <trkpt lat="43.61395" lon="7.04057">
        <ele>181.9</ele>
        <time>2014-10-26T16:06:59Z</time>
      </trkpt>
      <trkpt lat="43.61382" lon="7.04032">
        <ele>180.8</ele>
        <time>2014-10-26T16:07:04Z</time>
      </trkpt>
      <trkpt lat="43.61361" lon="7.04015">
        <ele>180.4</ele>
        <time>2014-10-26T16:07:09Z</time>
      </trkpt>
      <trkpt lat="43.61342" lon="7.04">
        <ele>180.3</ele>
        <time>2014-10-26T16:07:14Z</time>
      </trkpt>
      <trkpt lat="43.61323" lon="7.03982">
        <ele>179.4</ele>
        <time>2014-10-26T16:07:19Z</time>
      </trkpt>
      <trkpt lat="43.61307" lon="7.0396">
        <ele>179.4</ele>
        <time>2014-10-26T16:07:24Z</time>
      </trkpt>
      <trkpt lat="43.61293" lon="7.03936">
        <ele>179.3</ele>
        <time>2014-10-26T16:07:29Z</time>
      </trkpt>
      <trkpt lat="43.61276" lon="7.03912">
        <ele>177.7</ele>
        <time>2014-10-26T16:07:34Z</time>
      </trkpt>
      <trkpt lat="43.61266" lon="7.03892">
        <ele>178.1</ele>
        <time>2014-10-26T16:07:39Z</time>
      </trkpt>
      <trkpt lat="43.61263" lon="7.03865">
        <ele>178.5</ele>
        <time>2014-10-26T16:07:45Z</time>
      </trkpt>
      <trkpt lat="43.61259" lon="7.03849">
        <ele>178.2</ele>
        <time>2014-10-26T16:07:48Z</time>
      </trkpt>
      <trkpt lat="43.61253" lon="7.03815">
        <ele>177.8</ele>
        <time>2014-10-26T16:07:54Z</time>
      </trkpt>
      <trkpt lat="43.61239" lon="7.03792">
        <ele>177.1</ele>
        <time>2014-10-26T16:07:59Z</time>
      </trkpt>
      <trkpt lat="43.6122" lon="7.03786">
        <ele>177.4</ele>
        <time>2014-10-26T16:08:04Z</time>
      </trkpt>
      <trkpt lat="43.61209" lon="7.03794">
        <ele>180.8</ele>
        <time>2014-10-26T16:08:10Z</time>
      </trkpt>
      <trkpt lat="43.61197" lon="7.03787">
        <ele>180.5</ele>
        <time>2014-10-26T16:08:15Z</time>
      </trkpt>
      <trkpt lat="43.61183" lon="7.03778">
        <ele>180.2</ele>
        <time>2014-10-26T16:08:20Z</time>
      </trkpt>
      <trkpt lat="43.61168" lon="7.03762">
        <ele>180.3</ele>
        <time>2014-10-26T16:08:25Z</time>
      </trkpt>
      <trkpt lat="43.6116" lon="7.03745">
        <ele>181.3</ele>
        <time>2014-10-26T16:08:30Z</time>
      </trkpt>
      <trkpt lat="43.61148" lon="7.03733">
        <ele>183.3</ele>
        <time>2014-10-26T16:08:36Z</time>
      </trkpt>
      <trkpt lat="43.61139" lon="7.03714">
        <ele>183.5</ele>
        <time>2014-10-26T16:08:41Z</time>
      </trkpt>
      <trkpt lat="43.61132" lon="7.03695">
        <ele>183.2</ele>
        <time>2014-10-26T16:08:46Z</time>
      </trkpt>
      <trkpt lat="43.61119" lon="7.03681">
        <ele>183.2</ele>
        <time>2014-10-26T16:08:51Z</time>
      </trkpt>
      <trkpt lat="43.61106" lon="7.03667">
        <ele>184</ele>
        <time>2014-10-26T16:08:56Z</time>
      </trkpt>
      <trkpt lat="43.61092" lon="7.03648">
        <ele>183.4</ele>
        <time>2014-10-26T16:09:02Z</time>
      </trkpt>
      <trkpt lat="43.61077" lon="7.0364">
        <ele>184</ele>
        <time>2014-10-26T16:09:08Z</time>
      </trkpt>
      <trkpt lat="43.61066" lon="7.03632">
        <ele>185.1</ele>
        <time>2014-10-26T16:09:13Z</time>
      </trkpt>
      <trkpt lat="43.61053" lon="7.03623">
        <ele>185</ele>
        <time>2014-10-26T16:09:18Z</time>
      </trkpt>
      <trkpt lat="43.61034" lon="7.03611">
        <ele>185.4</ele>
        <time>2014-10-26T16:09:24Z</time>
      </trkpt>
      <trkpt lat="43.61016" lon="7.03601">
        <ele>186.1</ele>
        <time>2014-10-26T16:09:29Z</time>
      </trkpt>
      <trkpt lat="43.61004" lon="7.03592">
        <ele>188.8</ele>
        <time>2014-10-26T16:09:35Z</time>
      </trkpt>
      <trkpt lat="43.60994" lon="7.03575">
        <ele>188.1</ele>
        <time>2014-10-26T16:09:41Z</time>
      </trkpt>
      <trkpt lat="43.60979" lon="7.03558">
        <ele>189.5</ele>
        <time>2014-10-26T16:09:58Z</time>
      </trkpt>
      <trkpt lat="43.6097" lon="7.03544">
        <ele>191.3</ele>
        <time>2014-10-26T16:11:09Z</time>
      </trkpt>
      <trkpt lat="43.6096" lon="7.03534">
        <ele>192.6</ele>
        <time>2014-10-26T16:11:14Z</time>
      </trkpt>
      <trkpt lat="43.60948" lon="7.03526">
        <ele>192.4</ele>
        <time>2014-10-26T16:11:20Z</time>
      </trkpt>
      <trkpt lat="43.60916" lon="7.03484">
        <ele>199.8</ele>
        <time>2014-10-26T16:11:55Z</time>
      </trkpt>
      <trkpt lat="43.60911" lon="7.03477">
        <ele>199.7</ele>
        <time>2014-10-26T16:12:00Z</time>
      </trkpt>
      <trkpt lat="43.60904" lon="7.03466">
        <ele>200.5</ele>
        <time>2014-10-26T16:12:06Z</time>
      </trkpt>
      <trkpt lat="43.60895" lon="7.03455">
        <ele>201.8</ele>
        <time>2014-10-26T16:12:12Z</time>
      </trkpt>
      <trkpt lat="43.60878" lon="7.03453">
        <ele>202.9</ele>
        <time>2014-10-26T16:12:17Z</time>
      </trkpt>
      <trkpt lat="43.60862" lon="7.03454">
        <ele>203.3</ele>
        <time>2014-10-26T16:12:20Z</time>
      </trkpt>
      <trkpt lat="43.6085" lon="7.03423">
        <ele>201.1</ele>
        <time>2014-10-26T16:12:25Z</time>
      </trkpt>
      <trkpt lat="43.60857" lon="7.03381">
        <ele>197.8</ele>
        <time>2014-10-26T16:12:30Z</time>
      </trkpt>
      <trkpt lat="43.60846" lon="7.03358">
        <ele>196.7</ele>
        <time>2014-10-26T16:12:35Z</time>
      </trkpt>
      <trkpt lat="43.60832" lon="7.03341">
        <ele>196.3</ele>
        <time>2014-10-26T16:12:39Z</time>
      </trkpt>
      <trkpt lat="43.60815" lon="7.03313">
        <ele>194.1</ele>
        <time>2014-10-26T16:12:44Z</time>
      </trkpt>
      <trkpt lat="43.60799" lon="7.03286">
        <ele>193.1</ele>
        <time>2014-10-26T16:12:49Z</time>
      </trkpt>
      <trkpt lat="43.60783" lon="7.03261">
        <ele>193</ele>
        <time>2014-10-26T16:12:54Z</time>
      </trkpt>
      <trkpt lat="43.60764" lon="7.03235">
        <ele>192.8</ele>
        <time>2014-10-26T16:12:59Z</time>
      </trkpt>
      <trkpt lat="43.60745" lon="7.03215">
        <ele>193.5</ele>
        <time>2014-10-26T16:13:04Z</time>
      </trkpt>
      <trkpt lat="43.6073" lon="7.03197">
        <ele>193.2</ele>
        <time>2014-10-26T16:13:09Z</time>
      </trkpt>
      <trkpt lat="43.60717" lon="7.03172">
        <ele>193.8</ele>
        <time>2014-10-26T16:13:14Z</time>
      </trkpt>
      <trkpt lat="43.60705" lon="7.03143">
        <ele>193.6</ele>
        <time>2014-10-26T16:13:19Z</time>
      </trkpt>
      <trkpt lat="43.60696" lon="7.03115">
        <ele>193.8</ele>
        <time>2014-10-26T16:13:24Z</time>
      </trkpt>
      <trkpt lat="43.60677" lon="7.03086">
        <ele>193.7</ele>
        <time>2014-10-26T16:13:30Z</time>
      </trkpt>
      <trkpt lat="43.60655" lon="7.03064">
        <ele>193.1</ele>
        <time>2014-10-26T16:13:36Z</time>
      </trkpt>
      <trkpt lat="43.60636" lon="7.03054">
        <ele>193.9</ele>
        <time>2014-10-26T16:13:42Z</time>
      </trkpt>
      <trkpt lat="43.60616" lon="7.03031">
        <ele>194.3</ele>
        <time>2014-10-26T16:13:48Z</time>
      </trkpt>
      <trkpt lat="43.60597" lon="7.03007">
        <ele>195</ele>
        <time>2014-10-26T16:13:53Z</time>
      </trkpt>
      <trkpt lat="43.6058" lon="7.0299">
        <ele>195.1</ele>
        <time>2014-10-26T16:13:58Z</time>
      </trkpt>
      <trkpt lat="43.60563" lon="7.02966">
        <ele>195.8</ele>
        <time>2014-10-26T16:14:03Z</time>
      </trkpt>
      <trkpt lat="43.60547" lon="7.0294">
        <ele>196.4</ele>
        <time>2014-10-26T16:14:08Z</time>
      </trkpt>
      <trkpt lat="43.60531" lon="7.0291">
        <ele>197.2</ele>
        <time>2014-10-26T16:14:13Z</time>
      </trkpt>
      <trkpt lat="43.60515" lon="7.0288">
        <ele>198.5</ele>
        <time>2014-10-26T16:14:18Z</time>
      </trkpt>
      <trkpt lat="43.60502" lon="7.02858">
        <ele>199.9</ele>
        <time>2014-10-26T16:14:24Z</time>
      </trkpt>
      <trkpt lat="43.60489" lon="7.02848">
        <ele>200.3</ele>
        <time>2014-10-26T16:14:30Z</time>
      </trkpt>
      <trkpt lat="43.60482" lon="7.02853">
        <ele>204.9</ele>
        <time>2014-10-26T16:15:57Z</time>
      </trkpt>
      <trkpt lat="43.60465" lon="7.02849">
        <ele>202.3</ele>
        <time>2014-10-26T16:16:02Z</time>
      </trkpt>
      <trkpt lat="43.60454" lon="7.02853">
        <ele>199.2</ele>
        <time>2014-10-26T16:16:07Z</time>
      </trkpt>
      <trkpt lat="43.60444" lon="7.02851">
        <ele>202.4</ele>
        <time>2014-10-26T16:16:13Z</time>
      </trkpt>
      <trkpt lat="43.60427" lon="7.02844">
        <ele>202.9</ele>
        <time>2014-10-26T16:16:19Z</time>
      </trkpt>
      <trkpt lat="43.60403" lon="7.02838">
        <ele>208.5</ele>
        <time>2014-10-26T16:16:25Z</time>
      </trkpt>
      <trkpt lat="43.60389" lon="7.02834">
        <ele>212.1</ele>
        <time>2014-10-26T16:16:30Z</time>
      </trkpt>
      <trkpt lat="43.60371" lon="7.0283">
        <ele>212.9</ele>
        <time>2014-10-26T16:16:36Z</time>
      </trkpt>
      <trkpt lat="43.6035" lon="7.02827">
        <ele>212</ele>
        <time>2014-10-26T16:16:42Z</time>
      </trkpt>
      <trkpt lat="43.60322" lon="7.02829">
        <ele>212.6</ele>
        <time>2014-10-26T16:16:48Z</time>
      </trkpt>
      <trkpt lat="43.60298" lon="7.02836">
        <ele>213.6</ele>
        <time>2014-10-26T16:16:54Z</time>
      </trkpt>
      <trkpt lat="43.60284" lon="7.02837">
        <ele>213.2</ele>
        <time>2014-10-26T16:17:00Z</time>
      </trkpt>
      <trkpt lat="43.60273" lon="7.02842">
        <ele>212.7</ele>
        <time>2014-10-26T16:17:04Z</time>
      </trkpt>
      <trkpt lat="43.60258" lon="7.02846">
        <ele>212.3</ele>
        <time>2014-10-26T16:17:09Z</time>
      </trkpt>
      <trkpt lat="43.60241" lon="7.02851">
        <ele>212.2</ele>
        <time>2014-10-26T16:17:14Z</time>
      </trkpt>
      <trkpt lat="43.60224" lon="7.02859">
        <ele>212.6</ele>
        <time>2014-10-26T16:17:20Z</time>
      </trkpt>
      <trkpt lat="43.60206" lon="7.02871">
        <ele>212.1</ele>
        <time>2014-10-26T16:17:25Z</time>
      </trkpt>
      <trkpt lat="43.60184" lon="7.02879">
        <ele>211.8</ele>
        <time>2014-10-26T16:17:30Z</time>
      </trkpt>
      <trkpt lat="43.60156" lon="7.0289">
        <ele>212.3</ele>
        <time>2014-10-26T16:17:36Z</time>
      </trkpt>
      <trkpt lat="43.60143" lon="7.02894">
        <ele>212.3</ele>
        <time>2014-10-26T16:17:39Z</time>
      </trkpt>
      <trkpt lat="43.60124" lon="7.02885">
        <ele>212</ele>
        <time>2014-10-26T16:17:44Z</time>
      </trkpt>
      <trkpt lat="43.60123" lon="7.02863">
        <ele>211.9</ele>
        <time>2014-10-26T16:17:50Z</time>
      </trkpt>
      <trkpt lat="43.60118" lon="7.02852">
        <ele>212.7</ele>
        <time>2014-10-26T16:17:58Z</time>
      </trkpt>
      <trkpt lat="43.60107" lon="7.02839">
        <ele>211.9</ele>
        <time>2014-10-26T16:18:04Z</time>
      </trkpt>
      <trkpt lat="43.6009" lon="7.02839">
        <ele>212.4</ele>
        <time>2014-10-26T16:18:09Z</time>
      </trkpt>
      <trkpt lat="43.60077" lon="7.02837">
        <ele>211</ele>
        <time>2014-10-26T16:18:14Z</time>
      </trkpt>
      <trkpt lat="43.60062" lon="7.02849">
        <ele>210.2</ele>
        <time>2014-10-26T16:18:19Z</time>
      </trkpt>
      <trkpt lat="43.60047" lon="7.02855">
        <ele>210.2</ele>
        <time>2014-10-26T16:18:24Z</time>
      </trkpt>
      <trkpt lat="43.60031" lon="7.02855">
        <ele>210.5</ele>
        <time>2014-10-26T16:18:29Z</time>
      </trkpt>
      <trkpt lat="43.60015" lon="7.02856">
        <ele>210.5</ele>
        <time>2014-10-26T16:18:34Z</time>
      </trkpt>
      <trkpt lat="43.59999" lon="7.02861">
        <ele>210.6</ele>
        <time>2014-10-26T16:18:40Z</time>
      </trkpt>
      <trkpt lat="43.59983" lon="7.02867">
        <ele>210.8</ele>
        <time>2014-10-26T16:18:45Z</time>
      </trkpt>
      <trkpt lat="43.59969" lon="7.02872">
        <ele>211.2</ele>
        <time>2014-10-26T16:18:50Z</time>
      </trkpt>
      <trkpt lat="43.59955" lon="7.02876">
        <ele>211.2</ele>
        <time>2014-10-26T16:18:56Z</time>
      </trkpt>
      <trkpt lat="43.59944" lon="7.02882">
        <ele>213.6</ele>
        <time>2014-10-26T16:19:02Z</time>
      </trkpt>
      <trkpt lat="43.59934" lon="7.0289">
        <ele>214.9</ele>
        <time>2014-10-26T16:19:07Z</time>
      </trkpt>
      <trkpt lat="43.59922" lon="7.02896">
        <ele>216.1</ele>
        <time>2014-10-26T16:19:12Z</time>
      </trkpt>
      <trkpt lat="43.5991" lon="7.02897">
        <ele>217.5</ele>
        <time>2014-10-26T16:19:18Z</time>
      </trkpt>
      <trkpt lat="43.59897" lon="7.02901">
        <ele>218.8</ele>
        <time>2014-10-26T16:19:24Z</time>
      </trkpt>
      <trkpt lat="43.59896" lon="7.02882">
        <ele>217.6</ele>
        <time>2014-10-26T16:19:30Z</time>
      </trkpt>
      <trkpt lat="43.59892" lon="7.0286">
        <ele>219.1</ele>
        <time>2014-10-26T16:19:40Z</time>
      </trkpt>
      <trkpt lat="43.59885" lon="7.02849">
        <ele>219.6</ele>
        <time>2014-10-26T16:19:46Z</time>
      </trkpt>
      <trkpt lat="43.59885" lon="7.02809">
        <ele>221.3</ele>
        <time>2014-10-26T16:20:02Z</time>
      </trkpt>
      <trkpt lat="43.59893" lon="7.02784">
        <ele>223.9</ele>
        <time>2014-10-26T16:20:13Z</time>
      </trkpt>
      <trkpt lat="43.59903" lon="7.02777">
        <ele>222.9</ele>
        <time>2014-10-26T16:20:19Z</time>
      </trkpt>
      <trkpt lat="43.59913" lon="7.02773">
        <ele>223.4</ele>
        <time>2014-10-26T16:20:24Z</time>
      </trkpt>
      <trkpt lat="43.59922" lon="7.02765">
        <ele>224.6</ele>
        <time>2014-10-26T16:20:30Z</time>
      </trkpt>
      <trkpt lat="43.5993" lon="7.02752">
        <ele>225.1</ele>
        <time>2014-10-26T16:20:36Z</time>
      </trkpt>
      <trkpt lat="43.59936" lon="7.02733">
        <ele>227.6</ele>
        <time>2014-10-26T16:20:41Z</time>
      </trkpt>
      <trkpt lat="43.5994" lon="7.02718">
        <ele>228.7</ele>
        <time>2014-10-26T16:20:47Z</time>
      </trkpt>
      <trkpt lat="43.59947" lon="7.02695">
        <ele>227</ele>
        <time>2014-10-26T16:20:52Z</time>
      </trkpt>
      <trkpt lat="43.59951" lon="7.02672">
        <ele>228.8</ele>
        <time>2014-10-26T16:20:57Z</time>
      </trkpt>
      <trkpt lat="43.59952" lon="7.02647">
        <ele>229.5</ele>
        <time>2014-10-26T16:21:02Z</time>
      </trkpt>
      <trkpt lat="43.59952" lon="7.02614">
        <ele>228.4</ele>
        <time>2014-10-26T16:21:08Z</time>
      </trkpt>
      <trkpt lat="43.59953" lon="7.02587">
        <ele>227.5</ele>
        <time>2014-10-26T16:21:13Z</time>
      </trkpt>
      <trkpt lat="43.59957" lon="7.02563">
        <ele>228.7</ele>
        <time>2014-10-26T16:21:18Z</time>
      </trkpt>
      <trkpt lat="43.59954" lon="7.02542">
        <ele>228.3</ele>
        <time>2014-10-26T16:21:23Z</time>
      </trkpt>
      <trkpt lat="43.59951" lon="7.02522">
        <ele>229</ele>
        <time>2014-10-26T16:21:28Z</time>
      </trkpt>
      <trkpt lat="43.59954" lon="7.02493">
        <ele>228.9</ele>
        <time>2014-10-26T16:21:33Z</time>
      </trkpt>
      <trkpt lat="43.59963" lon="7.02485">
        <ele>229.7</ele>
        <time>2014-10-26T16:21:38Z</time>
      </trkpt>
      <trkpt lat="43.59976" lon="7.02487">
        <ele>228.9</ele>
        <time>2014-10-26T16:21:43Z</time>
      </trkpt>
      <trkpt lat="43.5999" lon="7.02497">
        <ele>229</ele>
        <time>2014-10-26T16:21:48Z</time>
      </trkpt>
      <trkpt lat="43.60004" lon="7.0252">
        <ele>231.2</ele>
        <time>2014-10-26T16:21:54Z</time>
      </trkpt>
      <trkpt lat="43.60018" lon="7.02542">
        <ele>229.3</ele>
        <time>2014-10-26T16:21:59Z</time>
      </trkpt>
      <trkpt lat="43.60034" lon="7.02558">
        <ele>228.7</ele>
        <time>2014-10-26T16:22:04Z</time>
      </trkpt>
      <trkpt lat="43.60048" lon="7.02575">
        <ele>230.5</ele>
        <time>2014-10-26T16:22:09Z</time>
      </trkpt>
      <trkpt lat="43.60063" lon="7.0258">
        <ele>232.5</ele>
        <time>2014-10-26T16:22:14Z</time>
      </trkpt>
      <trkpt lat="43.60076" lon="7.02579">
        <ele>234.5</ele>
        <time>2014-10-26T16:22:19Z</time>
      </trkpt>
      <trkpt lat="43.60091" lon="7.02577">
        <ele>236.1</ele>
        <time>2014-10-26T16:22:25Z</time>
      </trkpt>
      <trkpt lat="43.60104" lon="7.02568">
        <ele>234.9</ele>
        <time>2014-10-26T16:22:31Z</time>
      </trkpt>
      <trkpt lat="43.60115" lon="7.02559">
        <ele>235</ele>
        <time>2014-10-26T16:22:37Z</time>
      </trkpt>
      <trkpt lat="43.60123" lon="7.02547">
        <ele>235.2</ele>
        <time>2014-10-26T16:22:44Z</time>
      </trkpt>
      <trkpt lat="43.60135" lon="7.02534">
        <ele>236.6</ele>
        <time>2014-10-26T16:22:50Z</time>
      </trkpt>
      <trkpt lat="43.6014" lon="7.02519">
        <ele>238</ele>
        <time>2014-10-26T16:22:55Z</time>
      </trkpt>
      <trkpt lat="43.60147" lon="7.02501">
        <ele>239.2</ele>
        <time>2014-10-26T16:23:01Z</time>
      </trkpt>
      <trkpt lat="43.60151" lon="7.02492">
        <ele>241.7</ele>
        <time>2014-10-26T16:23:05Z</time>
      </trkpt>
      <trkpt lat="43.60155" lon="7.02484">
        <ele>244.2</ele>
        <time>2014-10-26T16:23:10Z</time>
      </trkpt>
      <trkpt lat="43.60158" lon="7.02468">
        <ele>246.2</ele>
        <time>2014-10-26T16:23:16Z</time>
      </trkpt>
      <trkpt lat="43.60159" lon="7.02451">
        <ele>246.8</ele>
        <time>2014-10-26T16:23:21Z</time>
      </trkpt>
      <trkpt lat="43.60164" lon="7.02433">
        <ele>247.7</ele>
        <time>2014-10-26T16:23:26Z</time>
      </trkpt>
      <trkpt lat="43.60165" lon="7.02414">
        <ele>249</ele>
        <time>2014-10-26T16:23:31Z</time>
      </trkpt>
      <trkpt lat="43.60166" lon="7.02395">
        <ele>248.4</ele>
        <time>2014-10-26T16:23:36Z</time>
      </trkpt>
      <trkpt lat="43.60167" lon="7.02378">
        <ele>249.1</ele>
        <time>2014-10-26T16:23:41Z</time>
      </trkpt>
      <trkpt lat="43.60162" lon="7.02357">
        <ele>251.5</ele>
        <time>2014-10-26T16:23:47Z</time>
      </trkpt>
      <trkpt lat="43.60155" lon="7.02343">
        <ele>253.7</ele>
        <time>2014-10-26T16:23:53Z</time>
      </trkpt>
      <trkpt lat="43.60147" lon="7.0233">
        <ele>254.1</ele>
        <time>2014-10-26T16:23:58Z</time>
      </trkpt>
      <trkpt lat="43.6014" lon="7.02315">
        <ele>255.8</ele>
        <time>2014-10-26T16:24:03Z</time>
      </trkpt>
      <trkpt lat="43.60128" lon="7.02303">
        <ele>257.3</ele>
        <time>2014-10-26T16:24:08Z</time>
      </trkpt>
      <trkpt lat="43.60118" lon="7.02287">
        <ele>258.6</ele>
        <time>2014-10-26T16:24:14Z</time>
      </trkpt>
      <trkpt lat="43.60108" lon="7.02276">
        <ele>259</ele>
        <time>2014-10-26T16:24:19Z</time>
      </trkpt>
      <trkpt lat="43.60095" lon="7.02262">
        <ele>260.5</ele>
        <time>2014-10-26T16:24:25Z</time>
      </trkpt>
      <trkpt lat="43.60089" lon="7.02249">
        <ele>262</ele>
        <time>2014-10-26T16:24:31Z</time>
      </trkpt>
      <trkpt lat="43.60079" lon="7.0223">
        <ele>261.8</ele>
        <time>2014-10-26T16:24:36Z</time>
      </trkpt>
      <trkpt lat="43.60069" lon="7.02218">
        <ele>264.2</ele>
        <time>2014-10-26T16:24:41Z</time>
      </trkpt>
      <trkpt lat="43.60061" lon="7.02202">
        <ele>265.6</ele>
        <time>2014-10-26T16:24:46Z</time>
      </trkpt>
      <trkpt lat="43.60064" lon="7.02188">
        <ele>268.5</ele>
        <time>2014-10-26T16:24:59Z</time>
      </trkpt>
      <trkpt lat="43.60069" lon="7.02192">
        <ele>270.3</ele>
        <time>2014-10-26T16:25:04Z</time>
      </trkpt>
      <trkpt lat="43.60072" lon="7.02208">
        <ele>272.1</ele>
        <time>2014-10-26T16:25:10Z</time>
      </trkpt>
      <trkpt lat="43.60075" lon="7.02225">
        <ele>273.1</ele>
        <time>2014-10-26T16:25:15Z</time>
      </trkpt>
      <trkpt lat="43.60077" lon="7.02242">
        <ele>275.6</ele>
        <time>2014-10-26T16:25:21Z</time>
      </trkpt>
      <trkpt lat="43.60081" lon="7.02265">
        <ele>277</ele>
        <time>2014-10-26T16:25:26Z</time>
      </trkpt>
      <trkpt lat="43.60073" lon="7.02282">
        <ele>270.9</ele>
        <time>2014-10-26T16:25:32Z</time>
      </trkpt>
      <trkpt lat="43.60064" lon="7.02309">
        <ele>269.1</ele>
        <time>2014-10-26T16:26:46Z</time>
      </trkpt>
      <trkpt lat="43.60069" lon="7.02316">
        <ele>264.6</ele>
        <time>2014-10-26T16:27:18Z</time>
      </trkpt>
      <trkpt lat="43.60079" lon="7.02331">
        <ele>266.1</ele>
        <time>2014-10-26T16:27:24Z</time>
      </trkpt>
      <trkpt lat="43.60093" lon="7.02348">
        <ele>265.5</ele>
        <time>2014-10-26T16:27:29Z</time>
      </trkpt>
      <trkpt lat="43.60107" lon="7.02374">
        <ele>267.1</ele>
        <time>2014-10-26T16:27:34Z</time>
      </trkpt>
      <trkpt lat="43.60112" lon="7.024">
        <ele>268.1</ele>
        <time>2014-10-26T16:27:40Z</time>
      </trkpt>
      <trkpt lat="43.60112" lon="7.02423">
        <ele>266.1</ele>
        <time>2014-10-26T16:27:46Z</time>
      </trkpt>
      <trkpt lat="43.60101" lon="7.02447">
        <ele>263.7</ele>
        <time>2014-10-26T16:29:04Z</time>
      </trkpt>
      <trkpt lat="43.60087" lon="7.0245">
        <ele>263</ele>
        <time>2014-10-26T16:29:09Z</time>
      </trkpt>
      <trkpt lat="43.60059" lon="7.02452">
        <ele>261.3</ele>
        <time>2014-10-26T16:29:14Z</time>
      </trkpt>
      <trkpt lat="43.60033" lon="7.0244">
        <ele>259.5</ele>
        <time>2014-10-26T16:29:19Z</time>
      </trkpt>
      <trkpt lat="43.60015" lon="7.02407">
        <ele>259.8</ele>
        <time>2014-10-26T16:29:24Z</time>
      </trkpt>
      <trkpt lat="43.59999" lon="7.02398">
        <ele>259.9</ele>
        <time>2014-10-26T16:29:30Z</time>
      </trkpt>
      <trkpt lat="43.59996" lon="7.02398">
        <ele>259.7</ele>
        <time>2014-10-26T16:29:31Z</time>
      </trkpt>
      <trkpt lat="43.59979" lon="7.02401">
        <ele>258.6</ele>
        <time>2014-10-26T16:29:36Z</time>
      </trkpt>
      <trkpt lat="43.59967" lon="7.02402">
        <ele>258.5</ele>
        <time>2014-10-26T16:29:38Z</time>
      </trkpt>
      <trkpt lat="43.59945" lon="7.02402">
        <ele>257.8</ele>
        <time>2014-10-26T16:29:43Z</time>
      </trkpt>
      <trkpt lat="43.59928" lon="7.02405">
        <ele>257.6</ele>
        <time>2014-10-26T16:29:48Z</time>
      </trkpt>
      <trkpt lat="43.59918" lon="7.02403">
        <ele>257.1</ele>
        <time>2014-10-26T16:29:51Z</time>
      </trkpt>
      <trkpt lat="43.59895" lon="7.02406">
        <ele>257.1</ele>
        <time>2014-10-26T16:29:56Z</time>
      </trkpt>
      <trkpt lat="43.59885" lon="7.02414">
        <ele>257.2</ele>
        <time>2014-10-26T16:30:01Z</time>
      </trkpt>
      <trkpt lat="43.59883" lon="7.02423">
        <ele>260.3</ele>
        <time>2014-10-26T16:30:07Z</time>
      </trkpt>
      <trkpt lat="43.59879" lon="7.02438">
        <ele>263.8</ele>
        <time>2014-10-26T16:30:15Z</time>
      </trkpt>
      <trkpt lat="43.59886" lon="7.02449">
        <ele>264.2</ele>
        <time>2014-10-26T16:30:20Z</time>
      </trkpt>
      <trkpt lat="43.59889" lon="7.02454">
        <ele>265.4</ele>
        <time>2014-10-26T16:30:22Z</time>
      </trkpt>
      <trkpt lat="43.59896" lon="7.02471">
        <ele>265.9</ele>
        <time>2014-10-26T16:30:28Z</time>
      </trkpt>
      <trkpt lat="43.59903" lon="7.02489">
        <ele>266.4</ele>
        <time>2014-10-26T16:30:33Z</time>
      </trkpt>
      <trkpt lat="43.59915" lon="7.02518">
        <ele>263.6</ele>
        <time>2014-10-26T16:30:38Z</time>
      </trkpt>
      <trkpt lat="43.59921" lon="7.02542">
        <ele>262.8</ele>
        <time>2014-10-26T16:30:43Z</time>
      </trkpt>
      <trkpt lat="43.59923" lon="7.02551">
        <ele>263</ele>
        <time>2014-10-26T16:30:45Z</time>
      </trkpt>
      <trkpt lat="43.59924" lon="7.02571">
        <ele>262.1</ele>
        <time>2014-10-26T16:30:50Z</time>
      </trkpt>
      <trkpt lat="43.59918" lon="7.02597">
        <ele>261.4</ele>
        <time>2014-10-26T16:30:55Z</time>
      </trkpt>
      <trkpt lat="43.59914" lon="7.02619">
        <ele>260.2</ele>
        <time>2014-10-26T16:31:00Z</time>
      </trkpt>
      <trkpt lat="43.59902" lon="7.02659">
        <ele>253.2</ele>
        <time>2014-10-26T16:31:06Z</time>
      </trkpt>
      <trkpt lat="43.59873" lon="7.02682">
        <ele>249.3</ele>
        <time>2014-10-26T16:31:12Z</time>
      </trkpt>
      <trkpt lat="43.59845" lon="7.02695">
        <ele>248.4</ele>
        <time>2014-10-26T16:31:18Z</time>
      </trkpt>
      <trkpt lat="43.59813" lon="7.02698">
        <ele>247.2</ele>
        <time>2014-10-26T16:31:24Z</time>
      </trkpt>
      <trkpt lat="43.59781" lon="7.02688">
        <ele>247.5</ele>
        <time>2014-10-26T16:31:30Z</time>
      </trkpt>
      <trkpt lat="43.59755" lon="7.02662">
        <ele>247.6</ele>
        <time>2014-10-26T16:31:35Z</time>
      </trkpt>
      <trkpt lat="43.59732" lon="7.0264">
        <ele>247.2</ele>
        <time>2014-10-26T16:31:40Z</time>
      </trkpt>
      <trkpt lat="43.59714" lon="7.02648">
        <ele>245.5</ele>
        <time>2014-10-26T16:31:46Z</time>
      </trkpt>
      <trkpt lat="43.59703" lon="7.02658">
        <ele>245.9</ele>
        <time>2014-10-26T16:31:51Z</time>
      </trkpt>
      <trkpt lat="43.59695" lon="7.02673">
        <ele>245.9</ele>
        <time>2014-10-26T16:31:56Z</time>
      </trkpt>
      <trkpt lat="43.59692" lon="7.02688">
        <ele>246.1</ele>
        <time>2014-10-26T16:32:02Z</time>
      </trkpt>
      <trkpt lat="43.59698" lon="7.02709">
        <ele>248.2</ele>
        <time>2014-10-26T16:32:07Z</time>
      </trkpt>
      <trkpt lat="43.59705" lon="7.02729">
        <ele>249.4</ele>
        <time>2014-10-26T16:32:12Z</time>
      </trkpt>
      <trkpt lat="43.59713" lon="7.0276">
        <ele>249.7</ele>
        <time>2014-10-26T16:32:18Z</time>
      </trkpt>
      <trkpt lat="43.59723" lon="7.02795">
        <ele>249.6</ele>
        <time>2014-10-26T16:32:24Z</time>
      </trkpt>
      <trkpt lat="43.59734" lon="7.02829">
        <ele>248.1</ele>
        <time>2014-10-26T16:32:29Z</time>
      </trkpt>
      <trkpt lat="43.59736" lon="7.02871">
        <ele>244.6</ele>
        <time>2014-10-26T16:32:34Z</time>
      </trkpt>
      <trkpt lat="43.59721" lon="7.02922">
        <ele>241.7</ele>
        <time>2014-10-26T16:32:39Z</time>
      </trkpt>
      <trkpt lat="43.59704" lon="7.02952">
        <ele>240.4</ele>
        <time>2014-10-26T16:32:43Z</time>
      </trkpt>
      <trkpt lat="43.597" lon="7.02968">
        <ele>239.2</ele>
        <time>2014-10-26T16:32:48Z</time>
      </trkpt>
      <trkpt lat="43.59715" lon="7.02995">
        <ele>240.2</ele>
        <time>2014-10-26T16:32:54Z</time>
      </trkpt>
      <trkpt lat="43.59722" lon="7.03023">
        <ele>240.4</ele>
        <time>2014-10-26T16:32:59Z</time>
      </trkpt>
      <trkpt lat="43.59723" lon="7.03056">
        <ele>239.9</ele>
        <time>2014-10-26T16:33:04Z</time>
      </trkpt>
      <trkpt lat="43.59721" lon="7.03095">
        <ele>238.3</ele>
        <time>2014-10-26T16:33:09Z</time>
      </trkpt>
      <trkpt lat="43.59722" lon="7.03131">
        <ele>237.7</ele>
        <time>2014-10-26T16:33:14Z</time>
      </trkpt>
      <trkpt lat="43.59734" lon="7.03155">
        <ele>238.8</ele>
        <time>2014-10-26T16:33:19Z</time>
      </trkpt>
      <trkpt lat="43.5975" lon="7.03184">
        <ele>237.1</ele>
        <time>2014-10-26T16:33:24Z</time>
      </trkpt>
      <trkpt lat="43.59766" lon="7.03194">
        <ele>237.7</ele>
        <time>2014-10-26T16:33:30Z</time>
      </trkpt>
      <trkpt lat="43.59764" lon="7.03217">
        <ele>233</ele>
        <time>2014-10-26T16:35:04Z</time>
      </trkpt>
      <trkpt lat="43.59765" lon="7.03238">
        <ele>232.1</ele>
        <time>2014-10-26T16:35:09Z</time>
      </trkpt>
      <trkpt lat="43.59771" lon="7.03264">
        <ele>234</ele>
        <time>2014-10-26T16:35:14Z</time>
      </trkpt>
      <trkpt lat="43.59785" lon="7.03283">
        <ele>235.9</ele>
        <time>2014-10-26T16:35:19Z</time>
      </trkpt>
      <trkpt lat="43.59796" lon="7.03297">
        <ele>237.1</ele>
        <time>2014-10-26T16:35:25Z</time>
      </trkpt>
      <trkpt lat="43.59807" lon="7.03311">
        <ele>236.4</ele>
        <time>2014-10-26T16:35:30Z</time>
      </trkpt>
      <trkpt lat="43.59827" lon="7.03334">
        <ele>237.1</ele>
        <time>2014-10-26T16:35:35Z</time>
      </trkpt>
      <trkpt lat="43.59842" lon="7.03361">
        <ele>237</ele>
        <time>2014-10-26T16:35:40Z</time>
      </trkpt>
      <trkpt lat="43.59849" lon="7.03392">
        <ele>236.5</ele>
        <time>2014-10-26T16:35:45Z</time>
      </trkpt>
      <trkpt lat="43.59848" lon="7.03416">
        <ele>234.8</ele>
        <time>2014-10-26T16:35:51Z</time>
      </trkpt>
      <trkpt lat="43.59845" lon="7.03432">
        <ele>233.2</ele>
        <time>2014-10-26T16:35:56Z</time>
      </trkpt>
      <trkpt lat="43.59844" lon="7.03446">
        <ele>233.7</ele>
        <time>2014-10-26T16:36:02Z</time>
      </trkpt>
      <trkpt lat="43.59837" lon="7.03465">
        <ele>233.4</ele>
        <time>2014-10-26T16:36:07Z</time>
      </trkpt>
      <trkpt lat="43.59832" lon="7.03478">
        <ele>232.7</ele>
        <time>2014-10-26T16:36:12Z</time>
      </trkpt>
      <trkpt lat="43.5983" lon="7.03497">
        <ele>232.5</ele>
        <time>2014-10-26T16:36:18Z</time>
      </trkpt>
      <trkpt lat="43.59826" lon="7.03511">
        <ele>232.6</ele>
        <time>2014-10-26T16:36:24Z</time>
      </trkpt>
      <trkpt lat="43.59824" lon="7.03526">
        <ele>232.8</ele>
        <time>2014-10-26T16:36:30Z</time>
      </trkpt>
      <trkpt lat="43.59824" lon="7.03545">
        <ele>234.4</ele>
        <time>2014-10-26T16:36:38Z</time>
      </trkpt>
      <trkpt lat="43.59819" lon="7.03562">
        <ele>235.1</ele>
        <time>2014-10-26T16:36:43Z</time>
      </trkpt>
      <trkpt lat="43.59813" lon="7.03579">
        <ele>236</ele>
        <time>2014-10-26T16:36:49Z</time>
      </trkpt>
      <trkpt lat="43.5981" lon="7.03592">
        <ele>237.9</ele>
        <time>2014-10-26T16:36:54Z</time>
      </trkpt>
      <trkpt lat="43.59814" lon="7.03609">
        <ele>238.8</ele>
        <time>2014-10-26T16:36:59Z</time>
      </trkpt>
      <trkpt lat="43.59809" lon="7.03623">
        <ele>240.2</ele>
        <time>2014-10-26T16:37:05Z</time>
      </trkpt>
      <trkpt lat="43.59808" lon="7.03627">
        <ele>240.4</ele>
        <time>2014-10-26T16:37:07Z</time>
      </trkpt>
      <trkpt lat="43.59803" lon="7.03642">
        <ele>240.1</ele>
        <time>2014-10-26T16:37:13Z</time>
      </trkpt>
      <trkpt lat="43.59775" lon="7.03667">
        <ele>239.2</ele>
        <time>2014-10-26T16:37:30Z</time>
      </trkpt>
      <trkpt lat="43.59759" lon="7.03682">
        <ele>239.3</ele>
        <time>2014-10-26T16:37:35Z</time>
      </trkpt>
      <trkpt lat="43.59745" lon="7.03693">
        <ele>240.8</ele>
        <time>2014-10-26T16:37:40Z</time>
      </trkpt>
      <trkpt lat="43.59734" lon="7.03701">
        <ele>244.2</ele>
        <time>2014-10-26T16:37:45Z</time>
      </trkpt>
      <trkpt lat="43.59715" lon="7.03711">
        <ele>243.4</ele>
        <time>2014-10-26T16:37:50Z</time>
      </trkpt>
      <trkpt lat="43.59687" lon="7.03725">
        <ele>244.1</ele>
        <time>2014-10-26T16:37:55Z</time>
      </trkpt>
      <trkpt lat="43.59671" lon="7.03728">
        <ele>245.4</ele>
        <time>2014-10-26T16:38:03Z</time>
      </trkpt>
      <trkpt lat="43.59659" lon="7.03731">
        <ele>247.3</ele>
        <time>2014-10-26T16:38:08Z</time>
      </trkpt>
      <trkpt lat="43.5965" lon="7.03737">
        <ele>245.2</ele>
        <time>2014-10-26T16:38:14Z</time>
      </trkpt>
      <trkpt lat="43.59647" lon="7.0375">
        <ele>245.3</ele>
        <time>2014-10-26T16:38:19Z</time>
      </trkpt>
      <trkpt lat="43.59651" lon="7.03766">
        <ele>244.6</ele>
        <time>2014-10-26T16:38:24Z</time>
      </trkpt>
      <trkpt lat="43.59651" lon="7.03789">
        <ele>244.3</ele>
        <time>2014-10-26T16:38:30Z</time>
      </trkpt>
      <trkpt lat="43.5965" lon="7.03814">
        <ele>245.7</ele>
        <time>2014-10-26T16:38:36Z</time>
      </trkpt>
      <trkpt lat="43.59654" lon="7.03834">
        <ele>243</ele>
        <time>2014-10-26T16:38:41Z</time>
      </trkpt>
      <trkpt lat="43.5965" lon="7.03855">
        <ele>240.5</ele>
        <time>2014-10-26T16:38:46Z</time>
      </trkpt>
      <trkpt lat="43.59658" lon="7.03871">
        <ele>246.1</ele>
        <time>2014-10-26T16:39:15Z</time>
      </trkpt>
      <trkpt lat="43.59648" lon="7.03852">
        <ele>245</ele>
        <time>2014-10-26T16:39:20Z</time>
      </trkpt>
      <trkpt lat="43.59643" lon="7.03823">
        <ele>245.8</ele>
        <time>2014-10-26T16:39:25Z</time>
      </trkpt>
      <trkpt lat="43.59633" lon="7.03828">
        <ele>245.4</ele>
        <time>2014-10-26T16:39:30Z</time>
      </trkpt>
      <trkpt lat="43.59621" lon="7.03846">
        <ele>242.9</ele>
        <time>2014-10-26T16:39:36Z</time>
      </trkpt>
      <trkpt lat="43.59613" lon="7.03871">
        <ele>242.5</ele>
        <time>2014-10-26T16:39:41Z</time>
      </trkpt>
      <trkpt lat="43.59598" lon="7.03891">
        <ele>241</ele>
        <time>2014-10-26T16:39:46Z</time>
      </trkpt>
      <trkpt lat="43.59585" lon="7.03912">
        <ele>239.7</ele>
        <time>2014-10-26T16:39:51Z</time>
      </trkpt>
      <trkpt lat="43.59572" lon="7.03911">
        <ele>237.8</ele>
        <time>2014-10-26T16:39:57Z</time>
      </trkpt>
      <trkpt lat="43.59553" lon="7.03898">
        <ele>237.1</ele>
        <time>2014-10-26T16:40:02Z</time>
      </trkpt>
      <trkpt lat="43.59538" lon="7.0388">
        <ele>236.9</ele>
        <time>2014-10-26T16:40:08Z</time>
      </trkpt>
      <trkpt lat="43.5952" lon="7.03875">
        <ele>235.3</ele>
        <time>2014-10-26T16:40:13Z</time>
      </trkpt>
      <trkpt lat="43.59502" lon="7.0389">
        <ele>231.5</ele>
        <time>2014-10-26T16:40:18Z</time>
      </trkpt>
      <trkpt lat="43.59477" lon="7.0391">
        <ele>224.6</ele>
        <time>2014-10-26T16:40:24Z</time>
      </trkpt>
      <trkpt lat="43.59451" lon="7.03947">
        <ele>219.4</ele>
        <time>2014-10-26T16:40:30Z</time>
      </trkpt>
      <trkpt lat="43.5943" lon="7.03983">
        <ele>216.8</ele>
        <time>2014-10-26T16:40:36Z</time>
      </trkpt>
      <trkpt lat="43.59429" lon="7.03992">
        <ele>214.2</ele>
        <time>2014-10-26T16:40:45Z</time>
      </trkpt>
      <trkpt lat="43.59421" lon="7.03983">
        <ele>215.2</ele>
        <time>2014-10-26T16:40:51Z</time>
      </trkpt>
      <trkpt lat="43.59412" lon="7.03986">
        <ele>214</ele>
        <time>2014-10-26T16:40:57Z</time>
      </trkpt>
      <trkpt lat="43.59404" lon="7.03989">
        <ele>215</ele>
        <time>2014-10-26T16:41:02Z</time>
      </trkpt>
      <trkpt lat="43.59391" lon="7.04003">
        <ele>212.9</ele>
        <time>2014-10-26T16:41:07Z</time>
      </trkpt>
      <trkpt lat="43.59382" lon="7.04023">
        <ele>211.5</ele>
        <time>2014-10-26T16:41:12Z</time>
      </trkpt>
      <trkpt lat="43.59368" lon="7.04049">
        <ele>210.7</ele>
        <time>2014-10-26T16:41:18Z</time>
      </trkpt>
      <trkpt lat="43.59358" lon="7.04063">
        <ele>209.4</ele>
        <time>2014-10-26T16:41:24Z</time>
      </trkpt>
      <trkpt lat="43.59371" lon="7.04074">
        <ele>209.6</ele>
        <time>2014-10-26T16:41:30Z</time>
      </trkpt>
      <trkpt lat="43.59395" lon="7.041">
        <ele>210.8</ele>
        <time>2014-10-26T16:41:35Z</time>
      </trkpt>
      <trkpt lat="43.59404" lon="7.04132">
        <ele>209.6</ele>
        <time>2014-10-26T16:41:40Z</time>
      </trkpt>
      <trkpt lat="43.59408" lon="7.04154">
        <ele>209.9</ele>
        <time>2014-10-26T16:41:45Z</time>
      </trkpt>
      <trkpt lat="43.59413" lon="7.04176">
        <ele>209.8</ele>
        <time>2014-10-26T16:41:50Z</time>
      </trkpt>
      <trkpt lat="43.5942" lon="7.042">
        <ele>209.7</ele>
        <time>2014-10-26T16:41:55Z</time>
      </trkpt>
      <trkpt lat="43.59429" lon="7.04232">
        <ele>209.2</ele>
        <time>2014-10-26T16:42:00Z</time>
      </trkpt>
      <trkpt lat="43.5944" lon="7.04285">
        <ele>207.7</ele>
        <time>2014-10-26T16:42:06Z</time>
      </trkpt>
      <trkpt lat="43.59449" lon="7.04334">
        <ele>208.4</ele>
        <time>2014-10-26T16:42:12Z</time>
      </trkpt>
      <trkpt lat="43.59453" lon="7.0439">
        <ele>207.6</ele>
        <time>2014-10-26T16:42:18Z</time>
      </trkpt>
      <trkpt lat="43.59451" lon="7.04442">
        <ele>208.2</ele>
        <time>2014-10-26T16:42:23Z</time>
      </trkpt>
      <trkpt lat="43.59453" lon="7.04485">
        <ele>205.4</ele>
        <time>2014-10-26T16:42:28Z</time>
      </trkpt>
      <trkpt lat="43.59447" lon="7.04513">
        <ele>203.2</ele>
        <time>2014-10-26T16:42:34Z</time>
      </trkpt>
      <trkpt lat="43.59436" lon="7.04527">
        <ele>202.8</ele>
        <time>2014-10-26T16:42:39Z</time>
      </trkpt>
      <trkpt lat="43.59421" lon="7.04536">
        <ele>202.4</ele>
        <time>2014-10-26T16:42:44Z</time>
      </trkpt>
      <trkpt lat="43.59411" lon="7.0455">
        <ele>202.6</ele>
        <time>2014-10-26T16:42:49Z</time>
      </trkpt>
      <trkpt lat="43.59409" lon="7.04572">
        <ele>202.5</ele>
        <time>2014-10-26T16:42:54Z</time>
      </trkpt>
      <trkpt lat="43.59407" lon="7.04602">
        <ele>203.9</ele>
        <time>2014-10-26T16:43:00Z</time>
      </trkpt>
      <trkpt lat="43.59403" lon="7.04629">
        <ele>203.9</ele>
        <time>2014-10-26T16:43:06Z</time>
      </trkpt>
      <trkpt lat="43.59402" lon="7.04653">
        <ele>205.2</ele>
        <time>2014-10-26T16:43:11Z</time>
      </trkpt>
      <trkpt lat="43.594" lon="7.04675">
        <ele>205.6</ele>
        <time>2014-10-26T16:43:16Z</time>
      </trkpt>
      <trkpt lat="43.59398" lon="7.04703">
        <ele>207</ele>
        <time>2014-10-26T16:43:22Z</time>
      </trkpt>
      <trkpt lat="43.59393" lon="7.04722">
        <ele>207.6</ele>
        <time>2014-10-26T16:43:28Z</time>
      </trkpt>
      <trkpt lat="43.59393" lon="7.04737">
        <ele>208.6</ele>
        <time>2014-10-26T16:43:34Z</time>
      </trkpt>
      <trkpt lat="43.59391" lon="7.04756">
        <ele>208.8</ele>
        <time>2014-10-26T16:43:40Z</time>
      </trkpt>
      <trkpt lat="43.59388" lon="7.04778">
        <ele>210.7</ele>
        <time>2014-10-26T16:43:46Z</time>
      </trkpt>
      <trkpt lat="43.59383" lon="7.04797">
        <ele>210.2</ele>
        <time>2014-10-26T16:43:51Z</time>
      </trkpt>
      <trkpt lat="43.59378" lon="7.04826">
        <ele>210.4</ele>
        <time>2014-10-26T16:43:56Z</time>
      </trkpt>
      <trkpt lat="43.59369" lon="7.04862">
        <ele>209.5</ele>
        <time>2014-10-26T16:44:01Z</time>
      </trkpt>
      <trkpt lat="43.5936" lon="7.04899">
        <ele>207.8</ele>
        <time>2014-10-26T16:44:07Z</time>
      </trkpt>
      <trkpt lat="43.59358" lon="7.04926">
        <ele>207.6</ele>
        <time>2014-10-26T16:44:12Z</time>
      </trkpt>
      <trkpt lat="43.59354" lon="7.04954">
        <ele>208.3</ele>
        <time>2014-10-26T16:44:17Z</time>
      </trkpt>
      <trkpt lat="43.5935" lon="7.0498">
        <ele>208</ele>
        <time>2014-10-26T16:44:22Z</time>
      </trkpt>
      <trkpt lat="43.59345" lon="7.05008">
        <ele>208.7</ele>
        <time>2014-10-26T16:44:27Z</time>
      </trkpt>
      <trkpt lat="43.5934" lon="7.05028">
        <ele>209.2</ele>
        <time>2014-10-26T16:44:32Z</time>
      </trkpt>
      <trkpt lat="43.5933" lon="7.05025">
        <ele>209.1</ele>
        <time>2014-10-26T16:44:38Z</time>
      </trkpt>
      <trkpt lat="43.59321" lon="7.05025">
        <ele>210.8</ele>
        <time>2014-10-26T16:44:44Z</time>
      </trkpt>
      <trkpt lat="43.59312" lon="7.05015">
        <ele>210.6</ele>
        <time>2014-10-26T16:44:50Z</time>
      </trkpt>
      <trkpt lat="43.59295" lon="7.04975">
        <ele>215.5</ele>
        <time>2014-10-26T16:45:12Z</time>
      </trkpt>
      <trkpt lat="43.59275" lon="7.04926">
        <ele>220.7</ele>
        <time>2014-10-26T16:45:46Z</time>
      </trkpt>
      <trkpt lat="43.59266" lon="7.04905">
        <ele>229.8</ele>
        <time>2014-10-26T16:46:40Z</time>
      </trkpt>
      <trkpt lat="43.59278" lon="7.04909">
        <ele>230</ele>
        <time>2014-10-26T16:46:46Z</time>
      </trkpt>
      <trkpt lat="43.59287" lon="7.04918">
        <ele>227.5</ele>
        <time>2014-10-26T16:46:51Z</time>
      </trkpt>
      <trkpt lat="43.59291" lon="7.04913">
        <ele>227.3</ele>
        <time>2014-10-26T16:46:57Z</time>
      </trkpt>
      <trkpt lat="43.59291" lon="7.04898">
        <ele>226.2</ele>
        <time>2014-10-26T16:47:03Z</time>
      </trkpt>
      <trkpt lat="43.59287" lon="7.04882">
        <ele>226.3</ele>
        <time>2014-10-26T16:47:12Z</time>
      </trkpt>
      <trkpt lat="43.59286" lon="7.04866">
        <ele>226.3</ele>
        <time>2014-10-26T16:47:19Z</time>
      </trkpt>
      <trkpt lat="43.59283" lon="7.04852">
        <ele>226.2</ele>
        <time>2014-10-26T16:47:25Z</time>
      </trkpt>
      <trkpt lat="43.59278" lon="7.04818">
        <ele>228.8</ele>
        <time>2014-10-26T16:47:44Z</time>
      </trkpt>
      <trkpt lat="43.59279" lon="7.04808">
        <ele>228.7</ele>
        <time>2014-10-26T16:47:49Z</time>
      </trkpt>
      <trkpt lat="43.5926" lon="7.04769">
        <ele>240.6</ele>
        <time>2014-10-26T16:48:54Z</time>
      </trkpt>
      <trkpt lat="43.59261" lon="7.04758">
        <ele>238.1</ele>
        <time>2014-10-26T16:49:02Z</time>
      </trkpt>
      <trkpt lat="43.59268" lon="7.04741">
        <ele>238.8</ele>
        <time>2014-10-26T16:49:14Z</time>
      </trkpt>
      <trkpt lat="43.59276" lon="7.04686">
        <ele>242.3</ele>
        <time>2014-10-26T16:50:03Z</time>
      </trkpt>
      <trkpt lat="43.59278" lon="7.04671">
        <ele>242.7</ele>
        <time>2014-10-26T16:50:09Z</time>
      </trkpt>
      <trkpt lat="43.59277" lon="7.04643">
        <ele>242.5</ele>
        <time>2014-10-26T16:50:20Z</time>
      </trkpt>
      <trkpt lat="43.59276" lon="7.04624">
        <ele>243.6</ele>
        <time>2014-10-26T16:50:26Z</time>
      </trkpt>
      <trkpt lat="43.59274" lon="7.04605">
        <ele>243.8</ele>
        <time>2014-10-26T16:50:35Z</time>
      </trkpt>
      <trkpt lat="43.59271" lon="7.04597">
        <ele>243.6</ele>
        <time>2014-10-26T16:50:40Z</time>
      </trkpt>
      <trkpt lat="43.59264" lon="7.04586">
        <ele>244.3</ele>
        <time>2014-10-26T16:50:46Z</time>
      </trkpt>
      <trkpt lat="43.59253" lon="7.04582">
        <ele>244.4</ele>
        <time>2014-10-26T16:50:52Z</time>
      </trkpt>
      <trkpt lat="43.59239" lon="7.0458">
        <ele>243</ele>
        <time>2014-10-26T16:50:58Z</time>
      </trkpt>
      <trkpt lat="43.59226" lon="7.04583">
        <ele>242.2</ele>
        <time>2014-10-26T16:51:04Z</time>
      </trkpt>
      <trkpt lat="43.59207" lon="7.04582">
        <ele>243.4</ele>
        <time>2014-10-26T16:51:09Z</time>
      </trkpt>
      <trkpt lat="43.59177" lon="7.04579">
        <ele>248.3</ele>
        <time>2014-10-26T16:51:26Z</time>
      </trkpt>
      <trkpt lat="43.59167" lon="7.04577">
        <ele>248.6</ele>
        <time>2014-10-26T16:51:31Z</time>
      </trkpt>
      <trkpt lat="43.59154" lon="7.04579">
        <ele>248.9</ele>
        <time>2014-10-26T16:51:36Z</time>
      </trkpt>
      <trkpt lat="43.59143" lon="7.04577">
        <ele>249.7</ele>
        <time>2014-10-26T16:51:41Z</time>
      </trkpt>
      <trkpt lat="43.59131" lon="7.04575">
        <ele>249.3</ele>
        <time>2014-10-26T16:51:46Z</time>
      </trkpt>
      <trkpt lat="43.59116" lon="7.04571">
        <ele>249.9</ele>
        <time>2014-10-26T16:51:51Z</time>
      </trkpt>
      <trkpt lat="43.59099" lon="7.0457">
        <ele>250.3</ele>
        <time>2014-10-26T16:51:57Z</time>
      </trkpt>
      <trkpt lat="43.59085" lon="7.04567">
        <ele>249.7</ele>
        <time>2014-10-26T16:52:02Z</time>
      </trkpt>
      <trkpt lat="43.59073" lon="7.04567">
        <ele>250.3</ele>
        <time>2014-10-26T16:52:08Z</time>
      </trkpt>
      <trkpt lat="43.59061" lon="7.04567">
        <ele>250.2</ele>
        <time>2014-10-26T16:52:14Z</time>
      </trkpt>
      <trkpt lat="43.59045" lon="7.04562">
        <ele>254.4</ele>
        <time>2014-10-26T16:52:24Z</time>
      </trkpt>
      <trkpt lat="43.59033" lon="7.04562">
        <ele>255.7</ele>
        <time>2014-10-26T16:52:30Z</time>
      </trkpt>
      <trkpt lat="43.58996" lon="7.04552">
        <ele>263.7</ele>
        <time>2014-10-26T16:52:51Z</time>
      </trkpt>
      <trkpt lat="43.58985" lon="7.04547">
        <ele>261.9</ele>
        <time>2014-10-26T16:52:56Z</time>
      </trkpt>
      <trkpt lat="43.58962" lon="7.04536">
        <ele>263.7</ele>
        <time>2014-10-26T16:53:10Z</time>
      </trkpt>
      <trkpt lat="43.5895" lon="7.04531">
        <ele>263.9</ele>
        <time>2014-10-26T16:53:16Z</time>
      </trkpt>
      <trkpt lat="43.58939" lon="7.04524">
        <ele>265</ele>
        <time>2014-10-26T16:53:21Z</time>
      </trkpt>
      <trkpt lat="43.58929" lon="7.04515">
        <ele>266.9</ele>
        <time>2014-10-26T16:53:27Z</time>
      </trkpt>
      <trkpt lat="43.58914" lon="7.04515">
        <ele>265.4</ele>
        <time>2014-10-26T16:53:33Z</time>
      </trkpt>
      <trkpt lat="43.58903" lon="7.04514">
        <ele>262</ele>
        <time>2014-10-26T16:53:39Z</time>
      </trkpt>
      <trkpt lat="43.58893" lon="7.04511">
        <ele>263</ele>
        <time>2014-10-26T16:53:44Z</time>
      </trkpt>
      <trkpt lat="43.58881" lon="7.04512">
        <ele>261.7</ele>
        <time>2014-10-26T16:53:50Z</time>
      </trkpt>
      <trkpt lat="43.58867" lon="7.04511">
        <ele>262.6</ele>
        <time>2014-10-26T16:53:56Z</time>
      </trkpt>
      <trkpt lat="43.58852" lon="7.04503">
        <ele>263.9</ele>
        <time>2014-10-26T16:54:01Z</time>
      </trkpt>
      <trkpt lat="43.58822" lon="7.04487">
        <ele>265.9</ele>
        <time>2014-10-26T16:54:30Z</time>
      </trkpt>
      <trkpt lat="43.5881" lon="7.04476">
        <ele>266.2</ele>
        <time>2014-10-26T16:54:36Z</time>
      </trkpt>
      <trkpt lat="43.58797" lon="7.04472">
        <ele>265.5</ele>
        <time>2014-10-26T16:54:42Z</time>
      </trkpt>
      <trkpt lat="43.58775" lon="7.04463">
        <ele>265.4</ele>
        <time>2014-10-26T16:54:47Z</time>
      </trkpt>
      <trkpt lat="43.58758" lon="7.04466">
        <ele>262.9</ele>
        <time>2014-10-26T16:54:52Z</time>
      </trkpt>
      <trkpt lat="43.58745" lon="7.04474">
        <ele>261.1</ele>
        <time>2014-10-26T16:54:57Z</time>
      </trkpt>
      <trkpt lat="43.58738" lon="7.04484">
        <ele>258.7</ele>
        <time>2014-10-26T16:55:05Z</time>
      </trkpt>
      <trkpt lat="43.58735" lon="7.04488">
        <ele>258.4</ele>
        <time>2014-10-26T16:55:08Z</time>
      </trkpt>
      <trkpt lat="43.58728" lon="7.04493">
        <ele>258</ele>
        <time>2014-10-26T16:55:13Z</time>
      </trkpt>
      <trkpt lat="43.58718" lon="7.045">
        <ele>258.8</ele>
        <time>2014-10-26T16:55:19Z</time>
      </trkpt>
      <trkpt lat="43.58708" lon="7.04508">
        <ele>259.9</ele>
        <time>2014-10-26T16:55:27Z</time>
      </trkpt>
      <trkpt lat="43.58704" lon="7.04521">
        <ele>261.4</ele>
        <time>2014-10-26T16:55:34Z</time>
      </trkpt>
      <trkpt lat="43.58705" lon="7.04536">
        <ele>267</ele>
        <time>2014-10-26T16:55:49Z</time>
      </trkpt>
      <trkpt lat="43.58692" lon="7.04532">
        <ele>265.9</ele>
        <time>2014-10-26T16:55:54Z</time>
      </trkpt>
      <trkpt lat="43.58675" lon="7.04524">
        <ele>267.5</ele>
        <time>2014-10-26T16:56:00Z</time>
      </trkpt>
      <trkpt lat="43.58664" lon="7.04522">
        <ele>267.1</ele>
        <time>2014-10-26T16:56:05Z</time>
      </trkpt>
      <trkpt lat="43.5866" lon="7.04541">
        <ele>266</ele>
        <time>2014-10-26T16:56:10Z</time>
      </trkpt>
      <trkpt lat="43.58664" lon="7.04572">
        <ele>266.2</ele>
        <time>2014-10-26T16:56:15Z</time>
      </trkpt>
      <trkpt lat="43.58685" lon="7.04603">
        <ele>264.8</ele>
        <time>2014-10-26T16:56:20Z</time>
      </trkpt>
      <trkpt lat="43.58666" lon="7.04623">
        <ele>262.1</ele>
        <time>2014-10-26T16:56:25Z</time>
      </trkpt>
      <trkpt lat="43.58624" lon="7.04623">
        <ele>257.2</ele>
        <time>2014-10-26T16:56:30Z</time>
      </trkpt>
      <trkpt lat="43.58576" lon="7.04636">
        <ele>252.3</ele>
        <time>2014-10-26T16:56:35Z</time>
      </trkpt>
      <trkpt lat="43.58536" lon="7.04678">
        <ele>246.6</ele>
        <time>2014-10-26T16:56:40Z</time>
      </trkpt>
      <trkpt lat="43.58515" lon="7.04737">
        <ele>243.8</ele>
        <time>2014-10-26T16:56:45Z</time>
      </trkpt>
      <trkpt lat="43.58518" lon="7.04776">
        <ele>243</ele>
        <time>2014-10-26T16:56:50Z</time>
      </trkpt>
      <trkpt lat="43.58532" lon="7.04806">
        <ele>243.8</ele>
        <time>2014-10-26T16:56:55Z</time>
      </trkpt>
      <trkpt lat="43.58546" lon="7.04837">
        <ele>244.4</ele>
        <time>2014-10-26T16:57:00Z</time>
      </trkpt>
      <trkpt lat="43.5856" lon="7.04861">
        <ele>243.8</ele>
        <time>2014-10-26T16:57:05Z</time>
      </trkpt>
      <trkpt lat="43.58576" lon="7.04895">
        <ele>241.2</ele>
        <time>2014-10-26T16:57:10Z</time>
      </trkpt>
      <trkpt lat="43.58583" lon="7.04922">
        <ele>239.1</ele>
        <time>2014-10-26T16:57:15Z</time>
      </trkpt>
      <trkpt lat="43.58593" lon="7.04947">
        <ele>237.5</ele>
        <time>2014-10-26T16:57:20Z</time>
      </trkpt>
      <trkpt lat="43.58588" lon="7.04957">
        <ele>236.2</ele>
        <time>2014-10-26T16:57:25Z</time>
      </trkpt>
      <trkpt lat="43.5857" lon="7.04969">
        <ele>234.5</ele>
        <time>2014-10-26T16:57:30Z</time>
      </trkpt>
      <trkpt lat="43.58549" lon="7.04981">
        <ele>235.4</ele>
        <time>2014-10-26T16:57:36Z</time>
      </trkpt>
      <trkpt lat="43.58516" lon="7.04991">
        <ele>236.8</ele>
        <time>2014-10-26T16:57:42Z</time>
      </trkpt>
      <trkpt lat="43.58481" lon="7.05008">
        <ele>237</ele>
        <time>2014-10-26T16:57:48Z</time>
      </trkpt>
      <trkpt lat="43.58448" lon="7.05027">
        <ele>231.8</ele>
        <time>2014-10-26T16:57:54Z</time>
      </trkpt>
      <trkpt lat="43.58414" lon="7.05031">
        <ele>227.1</ele>
        <time>2014-10-26T16:57:59Z</time>
      </trkpt>
      <trkpt lat="43.58404" lon="7.05026">
        <ele>226.2</ele>
        <time>2014-10-26T16:58:01Z</time>
      </trkpt>
      <trkpt lat="43.58393" lon="7.05024">
        <ele>223.6</ele>
        <time>2014-10-26T16:58:06Z</time>
      </trkpt>
      <trkpt lat="43.58372" lon="7.05035">
        <ele>221.3</ele>
        <time>2014-10-26T16:58:12Z</time>
      </trkpt>
      <trkpt lat="43.58343" lon="7.05039">
        <ele>217.1</ele>
        <time>2014-10-26T16:58:18Z</time>
      </trkpt>
      <trkpt lat="43.58329" lon="7.05046">
        <ele>211.8</ele>
        <time>2014-10-26T16:58:24Z</time>
      </trkpt>
      <trkpt lat="43.58303" lon="7.05066">
        <ele>208.9</ele>
        <time>2014-10-26T16:58:30Z</time>
      </trkpt>
      <trkpt lat="43.58265" lon="7.05095">
        <ele>204.6</ele>
        <time>2014-10-26T16:58:36Z</time>
      </trkpt>
      <trkpt lat="43.58231" lon="7.05092">
        <ele>202.3</ele>
        <time>2014-10-26T16:58:41Z</time>
      </trkpt>
      <trkpt lat="43.58203" lon="7.05105">
        <ele>197</ele>
        <time>2014-10-26T16:58:46Z</time>
      </trkpt>
      <trkpt lat="43.58182" lon="7.05146">
        <ele>192</ele>
        <time>2014-10-26T16:58:51Z</time>
      </trkpt>
      <trkpt lat="43.58141" lon="7.05178">
        <ele>188.8</ele>
        <time>2014-10-26T16:58:56Z</time>
      </trkpt>
      <trkpt lat="43.58098" lon="7.05208">
        <ele>181.9</ele>
        <time>2014-10-26T16:59:01Z</time>
      </trkpt>
      <trkpt lat="43.58057" lon="7.05251">
        <ele>175.9</ele>
        <time>2014-10-26T16:59:06Z</time>
      </trkpt>
      <trkpt lat="43.58012" lon="7.05282">
        <ele>178.3</ele>
        <time>2014-10-26T16:59:12Z</time>
      </trkpt>
      <trkpt lat="43.57983" lon="7.05295">
        <ele>177</ele>
        <time>2014-10-26T16:59:18Z</time>
      </trkpt>
      <trkpt lat="43.57968" lon="7.053">
        <ele>177.2</ele>
        <time>2014-10-26T16:59:24Z</time>
      </trkpt>
      <trkpt lat="43.5794" lon="7.05314">
        <ele>175.9</ele>
        <time>2014-10-26T16:59:30Z</time>
      </trkpt>
      <trkpt lat="43.57907" lon="7.05327">
        <ele>173.6</ele>
        <time>2014-10-26T16:59:36Z</time>
      </trkpt>
      <trkpt lat="43.57872" lon="7.05344">
        <ele>171.8</ele>
        <time>2014-10-26T16:59:42Z</time>
      </trkpt>
      <trkpt lat="43.57833" lon="7.05368">
        <ele>167.4</ele>
        <time>2014-10-26T16:59:48Z</time>
      </trkpt>
      <trkpt lat="43.57793" lon="7.05392">
        <ele>165.3</ele>
        <time>2014-10-26T16:59:54Z</time>
      </trkpt>
      <trkpt lat="43.57764" lon="7.05412">
        <ele>162.8</ele>
        <time>2014-10-26T16:59:59Z</time>
      </trkpt>
      <trkpt lat="43.57737" lon="7.05434">
        <ele>160.6</ele>
        <time>2014-10-26T17:00:04Z</time>
      </trkpt>
      <trkpt lat="43.57704" lon="7.05455">
        <ele>159.2</ele>
        <time>2014-10-26T17:00:09Z</time>
      </trkpt>
      <trkpt lat="43.57675" lon="7.05477">
        <ele>156.2</ele>
        <time>2014-10-26T17:00:14Z</time>
      </trkpt>
      <trkpt lat="43.57644" lon="7.05499">
        <ele>153.9</ele>
        <time>2014-10-26T17:00:19Z</time>
      </trkpt>
      <trkpt lat="43.57608" lon="7.05527">
        <ele>150.4</ele>
        <time>2014-10-26T17:00:25Z</time>
      </trkpt>
      <trkpt lat="43.57589" lon="7.05543">
        <ele>149.9</ele>
        <time>2014-10-26T17:00:30Z</time>
      </trkpt>
      <trkpt lat="43.57573" lon="7.05534">
        <ele>151</ele>
        <time>2014-10-26T17:00:36Z</time>
      </trkpt>
      <trkpt lat="43.57556" lon="7.05527">
        <ele>149.1</ele>
        <time>2014-10-26T17:00:42Z</time>
      </trkpt>
      <trkpt lat="43.57539" lon="7.0552">
        <ele>148.5</ele>
        <time>2014-10-26T17:00:48Z</time>
      </trkpt>
      <trkpt lat="43.57525" lon="7.05521">
        <ele>148.7</ele>
        <time>2014-10-26T17:00:53Z</time>
      </trkpt>
      <trkpt lat="43.57508" lon="7.05518">
        <ele>149.9</ele>
        <time>2014-10-26T17:00:58Z</time>
      </trkpt>
      <trkpt lat="43.57488" lon="7.05521">
        <ele>149.1</ele>
        <time>2014-10-26T17:01:04Z</time>
      </trkpt>
      <trkpt lat="43.57481" lon="7.05524">
        <ele>148.9</ele>
        <time>2014-10-26T17:01:09Z</time>
      </trkpt>
      <trkpt lat="43.57482" lon="7.05539">
        <ele>146.9</ele>
        <time>2014-10-26T17:01:14Z</time>
      </trkpt>
      <trkpt lat="43.57488" lon="7.05567">
        <ele>147.3</ele>
        <time>2014-10-26T17:01:19Z</time>
      </trkpt>
      <trkpt lat="43.57492" lon="7.05585">
        <ele>149.1</ele>
        <time>2014-10-26T17:01:24Z</time>
      </trkpt>
    </trkseg>
  </trk>
</gpx>